<?xml version="1.0" encoding="UTF-8"?>
<gpx xmlns="http://www.topografix.com/GPX/1/1" xmlns:xsi="http://www.w3.org/2001/XMLSchema-instance" version="1.1" xsi:schemaLocation="http://www.topografix.com/GPX/1/1 http://www.topografix.com/GPX/1/1/gpx.xsd">
  <metadata>
    <name>Las Olas Triathlon 2026 - Olympic Aquabike</name>
  </metadata>
  <trk>
    <name>Las Olas Triathlon 2026 - Olympic Aquabike</name>
    <trkseg>
      <trkpt lat="26.119281" lon="-80.105291">
        <ele>1.952888</ele>
        <time>2025-04-13T07:16:00.000Z</time>
      </trkpt>
      <trkpt lat="26.119281" lon="-80.104996">
        <ele>1.952891</ele>
        <time>2025-04-13T07:16:03.000Z</time>
      </trkpt>
      <trkpt lat="26.119282" lon="-80.104673">
        <ele>1.952889</ele>
        <time>2025-04-13T07:16:06.000Z</time>
      </trkpt>
      <trkpt lat="26.119289" lon="-80.104565">
        <ele>1.952901</ele>
        <time>2025-04-13T07:16:07.000Z</time>
      </trkpt>
      <trkpt lat="26.119412" lon="-80.104548">
        <ele>1.952888</ele>
        <time>2025-04-13T07:16:08.000Z</time>
      </trkpt>
      <trkpt lat="26.120098" lon="-80.104464">
        <ele>1.635887</ele>
        <time>2025-04-13T07:16:16.000Z</time>
      </trkpt>
      <trkpt lat="26.120935" lon="-80.104333">
        <ele>1.177303</ele>
        <time>2025-04-13T07:16:25.000Z</time>
      </trkpt>
      <trkpt lat="26.121443" lon="-80.104267">
        <ele>0.979937</ele>
        <time>2025-04-13T07:16:31.000Z</time>
      </trkpt>
      <trkpt lat="26.121749" lon="-80.104215">
        <ele>0.982852</ele>
        <time>2025-04-13T07:16:34.000Z</time>
      </trkpt>
      <trkpt lat="26.122549" lon="-80.104129">
        <ele>0.990458</ele>
        <time>2025-04-13T07:16:43.000Z</time>
      </trkpt>
      <trkpt lat="26.122574" lon="-80.104131">
        <ele>0.990595</ele>
        <time>2025-04-13T07:16:43.000Z</time>
      </trkpt>
      <trkpt lat="26.123409" lon="-80.104008">
        <ele>1.023966</ele>
        <time>2025-04-13T07:16:52.000Z</time>
      </trkpt>
      <trkpt lat="26.123597" lon="-80.103971">
        <ele>1.040677</ele>
        <time>2025-04-13T07:16:54.000Z</time>
      </trkpt>
      <trkpt lat="26.123822" lon="-80.103939">
        <ele>1.060685</ele>
        <time>2025-04-13T07:16:57.000Z</time>
      </trkpt>
      <trkpt lat="26.124186" lon="-80.103872">
        <ele>1.092873</ele>
        <time>2025-04-13T07:17:01.000Z</time>
      </trkpt>
      <trkpt lat="26.124406" lon="-80.103833">
        <ele>1.111767</ele>
        <time>2025-04-13T07:17:03.000Z</time>
      </trkpt>
      <trkpt lat="26.125228" lon="-80.103675">
        <ele>1.236403</ele>
        <time>2025-04-13T07:17:12.000Z</time>
      </trkpt>
      <trkpt lat="26.125876" lon="-80.103543">
        <ele>1.3854</ele>
        <time>2025-04-13T07:17:19.000Z</time>
      </trkpt>
      <trkpt lat="26.126989" lon="-80.103491">
        <ele>1.437246</ele>
        <time>2025-04-13T07:17:31.000Z</time>
      </trkpt>
      <trkpt lat="26.127274" lon="-80.103487">
        <ele>1.331322</ele>
        <time>2025-04-13T07:17:34.000Z</time>
      </trkpt>
      <trkpt lat="26.128018" lon="-80.103419">
        <ele>1.056528</ele>
        <time>2025-04-13T07:17:42.000Z</time>
      </trkpt>
      <trkpt lat="26.128641" lon="-80.103391">
        <ele>0.86415</ele>
        <time>2025-04-13T07:17:49.000Z</time>
      </trkpt>
      <trkpt lat="26.129069" lon="-80.103367">
        <ele>0.793578</ele>
        <time>2025-04-13T07:17:54.000Z</time>
      </trkpt>
      <trkpt lat="26.129842" lon="-80.103329">
        <ele>0.664063</ele>
        <time>2025-04-13T07:18:03.000Z</time>
      </trkpt>
      <trkpt lat="26.130398" lon="-80.103308">
        <ele>0.598795</ele>
        <time>2025-04-13T07:18:09.000Z</time>
      </trkpt>
      <trkpt lat="26.130706" lon="-80.103312">
        <ele>0.6051</ele>
        <time>2025-04-13T07:18:12.000Z</time>
      </trkpt>
      <trkpt lat="26.131104" lon="-80.103297">
        <ele>0.612833</ele>
        <time>2025-04-13T07:18:16.000Z</time>
      </trkpt>
      <trkpt lat="26.13119" lon="-80.103296">
        <ele>0.614747</ele>
        <time>2025-04-13T07:18:17.000Z</time>
      </trkpt>
      <trkpt lat="26.131282" lon="-80.103305">
        <ele>0.61641</ele>
        <time>2025-04-13T07:18:18.000Z</time>
      </trkpt>
      <trkpt lat="26.131959" lon="-80.103278">
        <ele>0.630291</ele>
        <time>2025-04-13T07:18:26.000Z</time>
      </trkpt>
      <trkpt lat="26.132511" lon="-80.103263">
        <ele>0.742276</ele>
        <time>2025-04-13T07:18:32.000Z</time>
      </trkpt>
      <trkpt lat="26.132866" lon="-80.103245">
        <ele>0.829025</ele>
        <time>2025-04-13T07:18:36.000Z</time>
      </trkpt>
      <trkpt lat="26.133211" lon="-80.103238">
        <ele>0.909401</ele>
        <time>2025-04-13T07:18:40.000Z</time>
      </trkpt>
      <trkpt lat="26.133319" lon="-80.103228">
        <ele>0.932632</ele>
        <time>2025-04-13T07:18:41.000Z</time>
      </trkpt>
      <trkpt lat="26.133392" lon="-80.103222">
        <ele>0.953277</ele>
        <time>2025-04-13T07:18:42.000Z</time>
      </trkpt>
      <trkpt lat="26.136162" lon="-80.10308">
        <ele>1.037495</ele>
        <time>2025-04-13T07:19:13.000Z</time>
      </trkpt>
      <trkpt lat="26.136448" lon="-80.103135">
        <ele>1.04664</ele>
        <time>2025-04-13T07:19:16.000Z</time>
      </trkpt>
      <trkpt lat="26.136789" lon="-80.103111">
        <ele>1.057604</ele>
        <time>2025-04-13T07:19:20.000Z</time>
      </trkpt>
      <trkpt lat="26.136872" lon="-80.103108">
        <ele>1.060166</ele>
        <time>2025-04-13T07:19:21.000Z</time>
      </trkpt>
      <trkpt lat="26.136967" lon="-80.103112">
        <ele>1.063253</ele>
        <time>2025-04-13T07:19:22.000Z</time>
      </trkpt>
      <trkpt lat="26.137314" lon="-80.10307">
        <ele>1.07429</ele>
        <time>2025-04-13T07:19:26.000Z</time>
      </trkpt>
      <trkpt lat="26.137401" lon="-80.103062">
        <ele>1.077058</ele>
        <time>2025-04-13T07:19:27.000Z</time>
      </trkpt>
      <trkpt lat="26.137812" lon="-80.103024">
        <ele>1.046482</ele>
        <time>2025-04-13T07:19:32.000Z</time>
      </trkpt>
      <trkpt lat="26.137979" lon="-80.102992">
        <ele>1.030996</ele>
        <time>2025-04-13T07:19:34.000Z</time>
      </trkpt>
      <trkpt lat="26.138111" lon="-80.102979">
        <ele>1.020496</ele>
        <time>2025-04-13T07:19:35.000Z</time>
      </trkpt>
      <trkpt lat="26.138207" lon="-80.102914">
        <ele>1.011088</ele>
        <time>2025-04-13T07:19:36.000Z</time>
      </trkpt>
      <trkpt lat="26.138954" lon="-80.102831">
        <ele>0.948446</ele>
        <time>2025-04-13T07:19:44.000Z</time>
      </trkpt>
      <trkpt lat="26.140187" lon="-80.102704">
        <ele>0.884495</ele>
        <time>2025-04-13T07:19:58.000Z</time>
      </trkpt>
      <trkpt lat="26.140589" lon="-80.102647">
        <ele>0.867385</ele>
        <time>2025-04-13T07:20:03.000Z</time>
      </trkpt>
      <trkpt lat="26.141242" lon="-80.102556">
        <ele>0.927468</ele>
        <time>2025-04-13T07:20:10.000Z</time>
      </trkpt>
      <trkpt lat="26.142056" lon="-80.102519">
        <ele>1.166911</ele>
        <time>2025-04-13T07:20:19.000Z</time>
      </trkpt>
      <trkpt lat="26.142882" lon="-80.102422">
        <ele>1.382384</ele>
        <time>2025-04-13T07:20:28.000Z</time>
      </trkpt>
      <trkpt lat="26.143974" lon="-80.102255">
        <ele>1.416335</ele>
        <time>2025-04-13T07:20:40.000Z</time>
      </trkpt>
      <trkpt lat="26.144617" lon="-80.102177">
        <ele>1.401079</ele>
        <time>2025-04-13T07:20:47.000Z</time>
      </trkpt>
      <trkpt lat="26.144636" lon="-80.102173">
        <ele>1.383618</ele>
        <time>2025-04-13T07:20:47.000Z</time>
      </trkpt>
      <trkpt lat="26.14495" lon="-80.10206">
        <ele>1.180244</ele>
        <time>2025-04-13T07:20:51.000Z</time>
      </trkpt>
      <trkpt lat="26.144988" lon="-80.102055">
        <ele>1.159897</ele>
        <time>2025-04-13T07:20:51.000Z</time>
      </trkpt>
      <trkpt lat="26.145258" lon="-80.101975">
        <ele>0.975794</ele>
        <time>2025-04-13T07:20:54.000Z</time>
      </trkpt>
      <trkpt lat="26.145768" lon="-80.101851">
        <ele>0.652827</ele>
        <time>2025-04-13T07:21:00.000Z</time>
      </trkpt>
      <trkpt lat="26.146259" lon="-80.101766">
        <ele>0.34315</ele>
        <time>2025-04-13T07:21:06.000Z</time>
      </trkpt>
      <trkpt lat="26.146568" lon="-80.101719">
        <ele>0.330668</ele>
        <time>2025-04-13T07:21:09.000Z</time>
      </trkpt>
      <trkpt lat="26.147347" lon="-80.101591">
        <ele>0.426549</ele>
        <time>2025-04-13T07:21:18.000Z</time>
      </trkpt>
      <trkpt lat="26.147413" lon="-80.101585">
        <ele>0.432629</ele>
        <time>2025-04-13T07:21:19.000Z</time>
      </trkpt>
      <trkpt lat="26.147853" lon="-80.101512">
        <ele>0.487338</ele>
        <time>2025-04-13T07:21:24.000Z</time>
      </trkpt>
      <trkpt lat="26.148145" lon="-80.101474">
        <ele>0.52652</ele>
        <time>2025-04-13T07:21:27.000Z</time>
      </trkpt>
      <trkpt lat="26.148923" lon="-80.101332">
        <ele>0.682952</ele>
        <time>2025-04-13T07:21:36.000Z</time>
      </trkpt>
      <trkpt lat="26.149472" lon="-80.101214">
        <ele>0.791935</ele>
        <time>2025-04-13T07:21:42.000Z</time>
      </trkpt>
      <trkpt lat="26.14971" lon="-80.101166">
        <ele>0.841402</ele>
        <time>2025-04-13T07:21:45.000Z</time>
      </trkpt>
      <trkpt lat="26.14974" lon="-80.10117">
        <ele>0.845981</ele>
        <time>2025-04-13T07:21:45.000Z</time>
      </trkpt>
      <trkpt lat="26.150526" lon="-80.101091">
        <ele>1.152408</ele>
        <time>2025-04-13T07:21:54.000Z</time>
      </trkpt>
      <trkpt lat="26.150565" lon="-80.101095">
        <ele>1.173715</ele>
        <time>2025-04-13T07:21:54.000Z</time>
      </trkpt>
      <trkpt lat="26.151321" lon="-80.100995">
        <ele>1.498775</ele>
        <time>2025-04-13T07:22:02.000Z</time>
      </trkpt>
      <trkpt lat="26.151817" lon="-80.100934">
        <ele>1.835569</ele>
        <time>2025-04-13T07:22:08.000Z</time>
      </trkpt>
      <trkpt lat="26.152113" lon="-80.100965">
        <ele>2.165857</ele>
        <time>2025-04-13T07:22:11.000Z</time>
      </trkpt>
      <trkpt lat="26.153015" lon="-80.101113">
        <ele>3.211979</ele>
        <time>2025-04-13T07:22:21.000Z</time>
      </trkpt>
      <trkpt lat="26.153165" lon="-80.101121">
        <ele>3.38429</ele>
        <time>2025-04-13T07:22:23.000Z</time>
      </trkpt>
      <trkpt lat="26.153431" lon="-80.101086">
        <ele>3.705713</ele>
        <time>2025-04-13T07:22:26.000Z</time>
      </trkpt>
      <trkpt lat="26.153774" lon="-80.101094">
        <ele>3.854856</ele>
        <time>2025-04-13T07:22:30.000Z</time>
      </trkpt>
      <trkpt lat="26.154137" lon="-80.101125">
        <ele>4.003257</ele>
        <time>2025-04-13T07:22:34.000Z</time>
      </trkpt>
      <trkpt lat="26.154267" lon="-80.101131">
        <ele>4.063194</ele>
        <time>2025-04-13T07:22:35.000Z</time>
      </trkpt>
      <trkpt lat="26.155178" lon="-80.101152">
        <ele>4.430041</ele>
        <time>2025-04-13T07:22:45.000Z</time>
      </trkpt>
      <trkpt lat="26.155515" lon="-80.10114">
        <ele>4.446843</ele>
        <time>2025-04-13T07:22:49.000Z</time>
      </trkpt>
      <trkpt lat="26.156397" lon="-80.101142">
        <ele>4.4039</ele>
        <time>2025-04-13T07:22:59.000Z</time>
      </trkpt>
      <trkpt lat="26.156578" lon="-80.10115">
        <ele>4.394541</ele>
        <time>2025-04-13T07:23:01.000Z</time>
      </trkpt>
      <trkpt lat="26.157152" lon="-80.10115">
        <ele>4.342802</ele>
        <time>2025-04-13T07:23:07.000Z</time>
      </trkpt>
      <trkpt lat="26.157293" lon="-80.101137">
        <ele>4.300096</ele>
        <time>2025-04-13T07:23:09.000Z</time>
      </trkpt>
      <trkpt lat="26.157769" lon="-80.101139">
        <ele>4.153335</ele>
        <time>2025-04-13T07:23:14.000Z</time>
      </trkpt>
      <trkpt lat="26.157938" lon="-80.101152">
        <ele>4.106134</ele>
        <time>2025-04-13T07:23:16.000Z</time>
      </trkpt>
      <trkpt lat="26.15962" lon="-80.101127">
        <ele>3.718532</ele>
        <time>2025-04-13T07:23:35.000Z</time>
      </trkpt>
      <trkpt lat="26.16029" lon="-80.101129">
        <ele>3.622201</ele>
        <time>2025-04-13T07:23:42.000Z</time>
      </trkpt>
      <trkpt lat="26.160634" lon="-80.101135">
        <ele>3.57272</ele>
        <time>2025-04-13T07:23:46.000Z</time>
      </trkpt>
      <trkpt lat="26.161141" lon="-80.101128">
        <ele>3.493469</ele>
        <time>2025-04-13T07:23:52.000Z</time>
      </trkpt>
      <trkpt lat="26.161551" lon="-80.101089">
        <ele>3.431033</ele>
        <time>2025-04-13T07:23:57.000Z</time>
      </trkpt>
      <trkpt lat="26.161695" lon="-80.101067">
        <ele>3.407354</ele>
        <time>2025-04-13T07:23:59.000Z</time>
      </trkpt>
      <trkpt lat="26.162871" lon="-80.100917">
        <ele>3.226767</ele>
        <time>2025-04-13T07:24:12.000Z</time>
      </trkpt>
      <trkpt lat="26.163527" lon="-80.100881">
        <ele>3.133765</ele>
        <time>2025-04-13T07:24:19.000Z</time>
      </trkpt>
      <trkpt lat="26.163518" lon="-80.100879">
        <ele>3.133608</ele>
        <time>2025-04-13T07:24:19.000Z</time>
      </trkpt>
      <trkpt lat="26.163517" lon="-80.100866">
        <ele>3.133331</ele>
        <time>2025-04-13T07:24:19.000Z</time>
      </trkpt>
      <trkpt lat="26.163518" lon="-80.100874">
        <ele>3.133041</ele>
        <time>2025-04-13T07:24:19.000Z</time>
      </trkpt>
      <trkpt lat="26.16359" lon="-80.100869">
        <ele>3.125063</ele>
        <time>2025-04-13T07:24:20.000Z</time>
      </trkpt>
      <trkpt lat="26.163594" lon="-80.101">
        <ele>3.108931</ele>
        <time>2025-04-13T07:24:21.000Z</time>
      </trkpt>
      <trkpt lat="26.163324" lon="-80.101012">
        <ele>3.070626</ele>
        <time>2025-04-13T07:24:24.000Z</time>
      </trkpt>
      <trkpt lat="26.162894" lon="-80.101035">
        <ele>3.075601</ele>
        <time>2025-04-13T07:24:29.000Z</time>
      </trkpt>
      <trkpt lat="26.161879" lon="-80.101166">
        <ele>3.367945</ele>
        <time>2025-04-13T07:24:40.000Z</time>
      </trkpt>
      <trkpt lat="26.16164" lon="-80.101205">
        <ele>3.434336</ele>
        <time>2025-04-13T07:24:43.000Z</time>
      </trkpt>
      <trkpt lat="26.161028" lon="-80.101247">
        <ele>3.556219</ele>
        <time>2025-04-13T07:24:50.000Z</time>
      </trkpt>
      <trkpt lat="26.160638" lon="-80.101253">
        <ele>3.577586</ele>
        <time>2025-04-13T07:24:54.000Z</time>
      </trkpt>
      <trkpt lat="26.160033" lon="-80.101266">
        <ele>3.612218</ele>
        <time>2025-04-13T07:25:01.000Z</time>
      </trkpt>
      <trkpt lat="26.159953" lon="-80.101259">
        <ele>3.615722</ele>
        <time>2025-04-13T07:25:02.000Z</time>
      </trkpt>
      <trkpt lat="26.159635" lon="-80.101264">
        <ele>3.634252</ele>
        <time>2025-04-13T07:25:06.000Z</time>
      </trkpt>
      <trkpt lat="26.15885" lon="-80.101254">
        <ele>3.717805</ele>
        <time>2025-04-13T07:25:15.000Z</time>
      </trkpt>
      <trkpt lat="26.158468" lon="-80.101269">
        <ele>3.76379</ele>
        <time>2025-04-13T07:25:19.000Z</time>
      </trkpt>
      <trkpt lat="26.157868" lon="-80.101256">
        <ele>3.835912</ele>
        <time>2025-04-13T07:25:26.000Z</time>
      </trkpt>
      <trkpt lat="26.157768" lon="-80.101256">
        <ele>3.848254</ele>
        <time>2025-04-13T07:25:27.000Z</time>
      </trkpt>
      <trkpt lat="26.157358" lon="-80.101257">
        <ele>3.964502</ele>
        <time>2025-04-13T07:25:32.000Z</time>
      </trkpt>
      <trkpt lat="26.156975" lon="-80.101264">
        <ele>4.097486</ele>
        <time>2025-04-13T07:25:36.000Z</time>
      </trkpt>
      <trkpt lat="26.156773" lon="-80.101275">
        <ele>4.168435</ele>
        <time>2025-04-13T07:25:38.000Z</time>
      </trkpt>
      <trkpt lat="26.156689" lon="-80.101262">
        <ele>4.193793</ele>
        <time>2025-04-13T07:25:39.000Z</time>
      </trkpt>
      <trkpt lat="26.1565" lon="-80.101261">
        <ele>4.263363</ele>
        <time>2025-04-13T07:25:41.000Z</time>
      </trkpt>
      <trkpt lat="26.156326" lon="-80.101273">
        <ele>4.316824</ele>
        <time>2025-04-13T07:25:43.000Z</time>
      </trkpt>
      <trkpt lat="26.155949" lon="-80.101268">
        <ele>4.452219</ele>
        <time>2025-04-13T07:25:47.000Z</time>
      </trkpt>
      <trkpt lat="26.155531" lon="-80.101266">
        <ele>4.41106</ele>
        <time>2025-04-13T07:25:52.000Z</time>
      </trkpt>
      <trkpt lat="26.154809" lon="-80.101262">
        <ele>4.271066</ele>
        <time>2025-04-13T07:26:00.000Z</time>
      </trkpt>
      <trkpt lat="26.1546" lon="-80.101265">
        <ele>4.2315</ele>
        <time>2025-04-13T07:26:02.000Z</time>
      </trkpt>
      <trkpt lat="26.154266" lon="-80.101245">
        <ele>4.166684</ele>
        <time>2025-04-13T07:26:06.000Z</time>
      </trkpt>
      <trkpt lat="26.154116" lon="-80.101235">
        <ele>4.138545</ele>
        <time>2025-04-13T07:26:08.000Z</time>
      </trkpt>
      <trkpt lat="26.153664" lon="-80.101183">
        <ele>3.741452</ele>
        <time>2025-04-13T07:26:13.000Z</time>
      </trkpt>
      <trkpt lat="26.153155" lon="-80.101128">
        <ele>3.245158</ele>
        <time>2025-04-13T07:26:19.000Z</time>
      </trkpt>
      <trkpt lat="26.153003" lon="-80.101123">
        <ele>3.101058</ele>
        <time>2025-04-13T07:26:21.000Z</time>
      </trkpt>
      <trkpt lat="26.152117" lon="-80.100953">
        <ele>2.251782</ele>
        <time>2025-04-13T07:26:31.000Z</time>
      </trkpt>
      <trkpt lat="26.151821" lon="-80.100942">
        <ele>2.017675</ele>
        <time>2025-04-13T07:26:34.000Z</time>
      </trkpt>
      <trkpt lat="26.151316" lon="-80.101001">
        <ele>1.599226</ele>
        <time>2025-04-13T07:26:40.000Z</time>
      </trkpt>
      <trkpt lat="26.150575" lon="-80.101077">
        <ele>0.984706</ele>
        <time>2025-04-13T07:26:48.000Z</time>
      </trkpt>
      <trkpt lat="26.150524" lon="-80.101089">
        <ele>0.944409</ele>
        <time>2025-04-13T07:26:49.000Z</time>
      </trkpt>
      <trkpt lat="26.149733" lon="-80.101167">
        <ele>0.853925</ele>
        <time>2025-04-13T07:26:58.000Z</time>
      </trkpt>
      <trkpt lat="26.149719" lon="-80.101169">
        <ele>0.851795</ele>
        <time>2025-04-13T07:26:58.000Z</time>
      </trkpt>
      <trkpt lat="26.149463" lon="-80.10122">
        <ele>0.82881</ele>
        <time>2025-04-13T07:27:01.000Z</time>
      </trkpt>
      <trkpt lat="26.148936" lon="-80.101333">
        <ele>0.778156</ele>
        <time>2025-04-13T07:27:07.000Z</time>
      </trkpt>
      <trkpt lat="26.148153" lon="-80.101456">
        <ele>0.562488</ele>
        <time>2025-04-13T07:27:16.000Z</time>
      </trkpt>
      <trkpt lat="26.147851" lon="-80.101515">
        <ele>0.461662</ele>
        <time>2025-04-13T07:27:19.000Z</time>
      </trkpt>
      <trkpt lat="26.147408" lon="-80.101596">
        <ele>0.307167</ele>
        <time>2025-04-13T07:27:24.000Z</time>
      </trkpt>
      <trkpt lat="26.147346" lon="-80.101592">
        <ele>0.289973</ele>
        <time>2025-04-13T07:27:25.000Z</time>
      </trkpt>
      <trkpt lat="26.14657" lon="-80.101724">
        <ele>0.357584</ele>
        <time>2025-04-13T07:27:34.000Z</time>
      </trkpt>
      <trkpt lat="26.146258" lon="-80.101775">
        <ele>0.536658</ele>
        <time>2025-04-13T07:27:38.000Z</time>
      </trkpt>
      <trkpt lat="26.14577" lon="-80.101846">
        <ele>0.815822</ele>
        <time>2025-04-13T07:27:43.000Z</time>
      </trkpt>
      <trkpt lat="26.145265" lon="-80.101977">
        <ele>1.10699</ele>
        <time>2025-04-13T07:27:49.000Z</time>
      </trkpt>
      <trkpt lat="26.144987" lon="-80.102057">
        <ele>1.241199</ele>
        <time>2025-04-13T07:27:52.000Z</time>
      </trkpt>
      <trkpt lat="26.144958" lon="-80.102077">
        <ele>1.253991</ele>
        <time>2025-04-13T07:27:52.000Z</time>
      </trkpt>
      <trkpt lat="26.144646" lon="-80.102157">
        <ele>1.381937</ele>
        <time>2025-04-13T07:27:56.000Z</time>
      </trkpt>
      <trkpt lat="26.144625" lon="-80.102171">
        <ele>1.392939</ele>
        <time>2025-04-13T07:27:56.000Z</time>
      </trkpt>
      <trkpt lat="26.144412" lon="-80.102259">
        <ele>1.483011</ele>
        <time>2025-04-13T07:27:59.000Z</time>
      </trkpt>
      <trkpt lat="26.144217" lon="-80.102312">
        <ele>1.561192</ele>
        <time>2025-04-13T07:28:01.000Z</time>
      </trkpt>
      <trkpt lat="26.142891" lon="-80.102496">
        <ele>1.724285</ele>
        <time>2025-04-13T07:28:16.000Z</time>
      </trkpt>
      <trkpt lat="26.14059" lon="-80.10274">
        <ele>1.209208</ele>
        <time>2025-04-13T07:28:42.000Z</time>
      </trkpt>
      <trkpt lat="26.139862" lon="-80.10281">
        <ele>1.109933</ele>
        <time>2025-04-13T07:28:50.000Z</time>
      </trkpt>
      <trkpt lat="26.138947" lon="-80.102916">
        <ele>1.247126</ele>
        <time>2025-04-13T07:29:00.000Z</time>
      </trkpt>
      <trkpt lat="26.138215" lon="-80.103025">
        <ele>1.366851</ele>
        <time>2025-04-13T07:29:08.000Z</time>
      </trkpt>
      <trkpt lat="26.138109" lon="-80.10298">
        <ele>1.383761</ele>
        <time>2025-04-13T07:29:09.000Z</time>
      </trkpt>
      <trkpt lat="26.137997" lon="-80.102999">
        <ele>1.391113</ele>
        <time>2025-04-13T07:29:10.000Z</time>
      </trkpt>
      <trkpt lat="26.137797" lon="-80.103013">
        <ele>1.384383</ele>
        <time>2025-04-13T07:29:12.000Z</time>
      </trkpt>
      <trkpt lat="26.137391" lon="-80.103063">
        <ele>1.369382</ele>
        <time>2025-04-13T07:29:17.000Z</time>
      </trkpt>
      <trkpt lat="26.137314" lon="-80.103075">
        <ele>1.366227</ele>
        <time>2025-04-13T07:29:18.000Z</time>
      </trkpt>
      <trkpt lat="26.136969" lon="-80.103106">
        <ele>1.35372</ele>
        <time>2025-04-13T07:29:22.000Z</time>
      </trkpt>
      <trkpt lat="26.136874" lon="-80.103119">
        <ele>1.350204</ele>
        <time>2025-04-13T07:29:23.000Z</time>
      </trkpt>
      <trkpt lat="26.13678" lon="-80.103116">
        <ele>1.347296</ele>
        <time>2025-04-13T07:29:24.000Z</time>
      </trkpt>
      <trkpt lat="26.136456" lon="-80.103143">
        <ele>1.334849</ele>
        <time>2025-04-13T07:29:28.000Z</time>
      </trkpt>
      <trkpt lat="26.136169" lon="-80.103193">
        <ele>1.340959</ele>
        <time>2025-04-13T07:29:31.000Z</time>
      </trkpt>
      <trkpt lat="26.133408" lon="-80.103343">
        <ele>1.480503</ele>
        <time>2025-04-13T07:30:02.000Z</time>
      </trkpt>
      <trkpt lat="26.133363" lon="-80.103336">
        <ele>1.476197</ele>
        <time>2025-04-13T07:30:03.000Z</time>
      </trkpt>
      <trkpt lat="26.133265" lon="-80.103347">
        <ele>1.467127</ele>
        <time>2025-04-13T07:30:04.000Z</time>
      </trkpt>
      <trkpt lat="26.133221" lon="-80.103339">
        <ele>1.46235</ele>
        <time>2025-04-13T07:30:04.000Z</time>
      </trkpt>
      <trkpt lat="26.132613" lon="-80.103364">
        <ele>1.39948</ele>
        <time>2025-04-13T07:30:11.000Z</time>
      </trkpt>
      <trkpt lat="26.132514" lon="-80.10336">
        <ele>1.385548</ele>
        <time>2025-04-13T07:30:12.000Z</time>
      </trkpt>
      <trkpt lat="26.132316" lon="-80.103368">
        <ele>1.357817</ele>
        <time>2025-04-13T07:30:14.000Z</time>
      </trkpt>
      <trkpt lat="26.131965" lon="-80.103383">
        <ele>1.305594</ele>
        <time>2025-04-13T07:30:18.000Z</time>
      </trkpt>
      <trkpt lat="26.131901" lon="-80.103387">
        <ele>1.29649</ele>
        <time>2025-04-13T07:30:19.000Z</time>
      </trkpt>
      <trkpt lat="26.131271" lon="-80.103391">
        <ele>1.204634</ele>
        <time>2025-04-13T07:30:26.000Z</time>
      </trkpt>
      <trkpt lat="26.13123" lon="-80.103408">
        <ele>1.197151</ele>
        <time>2025-04-13T07:30:26.000Z</time>
      </trkpt>
      <trkpt lat="26.131152" lon="-80.103397">
        <ele>1.185865</ele>
        <time>2025-04-13T07:30:27.000Z</time>
      </trkpt>
      <trkpt lat="26.131096" lon="-80.103405">
        <ele>1.178676</ele>
        <time>2025-04-13T07:30:28.000Z</time>
      </trkpt>
      <trkpt lat="26.13048" lon="-80.103416">
        <ele>1.181401</ele>
        <time>2025-04-13T07:30:35.000Z</time>
      </trkpt>
      <trkpt lat="26.130399" lon="-80.103421">
        <ele>1.188661</ele>
        <time>2025-04-13T07:30:36.000Z</time>
      </trkpt>
      <trkpt lat="26.129841" lon="-80.103442">
        <ele>1.240507</ele>
        <time>2025-04-13T07:30:42.000Z</time>
      </trkpt>
      <trkpt lat="26.129776" lon="-80.103448">
        <ele>1.245666</ele>
        <time>2025-04-13T07:30:43.000Z</time>
      </trkpt>
      <trkpt lat="26.129111" lon="-80.103463">
        <ele>1.307017</ele>
        <time>2025-04-13T07:30:50.000Z</time>
      </trkpt>
      <trkpt lat="26.129035" lon="-80.103464">
        <ele>1.332165</ele>
        <time>2025-04-13T07:30:51.000Z</time>
      </trkpt>
      <trkpt lat="26.128014" lon="-80.103534">
        <ele>1.766015</ele>
        <time>2025-04-13T07:31:02.000Z</time>
      </trkpt>
      <trkpt lat="26.1275" lon="-80.103558">
        <ele>1.987745</ele>
        <time>2025-04-13T07:31:08.000Z</time>
      </trkpt>
      <trkpt lat="26.127267" lon="-80.10357">
        <ele>2.086976</ele>
        <time>2025-04-13T07:31:11.000Z</time>
      </trkpt>
      <trkpt lat="26.126575" lon="-80.103614">
        <ele>2.084412</ele>
        <time>2025-04-13T07:31:19.000Z</time>
      </trkpt>
      <trkpt lat="26.125951" lon="-80.103635">
        <ele>2.082107</ele>
        <time>2025-04-13T07:31:26.000Z</time>
      </trkpt>
      <trkpt lat="26.125968" lon="-80.103638">
        <ele>2.082105</ele>
        <time>2025-04-13T07:31:26.000Z</time>
      </trkpt>
      <trkpt lat="26.12545" lon="-80.103684">
        <ele>2.060735</ele>
        <time>2025-04-13T07:31:32.000Z</time>
      </trkpt>
      <trkpt lat="26.124919" lon="-80.103727">
        <ele>1.804937</ele>
        <time>2025-04-13T07:31:38.000Z</time>
      </trkpt>
      <trkpt lat="26.124929" lon="-80.103719">
        <ele>1.804941</ele>
        <time>2025-04-13T07:31:38.000Z</time>
      </trkpt>
      <trkpt lat="26.124926" lon="-80.103725">
        <ele>1.804949</ele>
        <time>2025-04-13T07:31:38.000Z</time>
      </trkpt>
      <trkpt lat="26.124923" lon="-80.103735">
        <ele>1.803609</ele>
        <time>2025-04-13T07:31:38.000Z</time>
      </trkpt>
      <trkpt lat="26.124378" lon="-80.103838">
        <ele>1.527429</ele>
        <time>2025-04-13T07:31:44.000Z</time>
      </trkpt>
      <trkpt lat="26.123823" lon="-80.103937">
        <ele>1.251742</ele>
        <time>2025-04-13T07:31:50.000Z</time>
      </trkpt>
      <trkpt lat="26.12382" lon="-80.10393">
        <ele>1.251745</ele>
        <time>2025-04-13T07:31:50.000Z</time>
      </trkpt>
      <trkpt lat="26.123825" lon="-80.103936">
        <ele>1.248639</ele>
        <time>2025-04-13T07:31:50.000Z</time>
      </trkpt>
      <trkpt lat="26.123215" lon="-80.104022">
        <ele>1.138383</ele>
        <time>2025-04-13T07:31:57.000Z</time>
      </trkpt>
      <trkpt lat="26.122563" lon="-80.104123">
        <ele>1.070757</ele>
        <time>2025-04-13T07:32:04.000Z</time>
      </trkpt>
      <trkpt lat="26.122573" lon="-80.104132">
        <ele>1.070747</ele>
        <time>2025-04-13T07:32:04.000Z</time>
      </trkpt>
      <trkpt lat="26.122599" lon="-80.104117">
        <ele>1.068327</ele>
        <time>2025-04-13T07:32:04.000Z</time>
      </trkpt>
      <trkpt lat="26.122026" lon="-80.104195">
        <ele>1.007499</ele>
        <time>2025-04-13T07:32:10.000Z</time>
      </trkpt>
      <trkpt lat="26.121444" lon="-80.10427">
        <ele>1.046965</ele>
        <time>2025-04-13T07:32:17.000Z</time>
      </trkpt>
      <trkpt lat="26.121439" lon="-80.104258">
        <ele>1.046965</ele>
        <time>2025-04-13T07:32:17.000Z</time>
      </trkpt>
      <trkpt lat="26.120939" lon="-80.104335">
        <ele>1.089186</ele>
        <time>2025-04-13T07:32:23.000Z</time>
      </trkpt>
      <trkpt lat="26.120456" lon="-80.104417">
        <ele>1.131004</ele>
        <time>2025-04-13T07:32:28.000Z</time>
      </trkpt>
      <trkpt lat="26.120101" lon="-80.104464">
        <ele>1.153893</ele>
        <time>2025-04-13T07:32:32.000Z</time>
      </trkpt>
      <trkpt lat="26.120017" lon="-80.104489">
        <ele>1.154615</ele>
        <time>2025-04-13T07:32:33.000Z</time>
      </trkpt>
      <trkpt lat="26.12001" lon="-80.104484">
        <ele>1.154607</ele>
        <time>2025-04-13T07:32:33.000Z</time>
      </trkpt>
      <trkpt lat="26.120014" lon="-80.10449">
        <ele>1.154615</ele>
        <time>2025-04-13T07:32:33.000Z</time>
      </trkpt>
      <trkpt lat="26.119277" lon="-80.104562">
        <ele>1.160488</ele>
        <time>2025-04-13T07:32:41.000Z</time>
      </trkpt>
      <trkpt lat="26.1194" lon="-80.104545">
        <ele>1.161469</ele>
        <time>2025-04-13T07:32:42.000Z</time>
      </trkpt>
      <trkpt lat="26.120111" lon="-80.104467">
        <ele>1.167059</ele>
        <time>2025-04-13T07:32:50.000Z</time>
      </trkpt>
      <trkpt lat="26.120936" lon="-80.104335">
        <ele>1.070524</ele>
        <time>2025-04-13T07:32:59.000Z</time>
      </trkpt>
      <trkpt lat="26.121443" lon="-80.104253">
        <ele>1.007893</ele>
        <time>2025-04-13T07:33:05.000Z</time>
      </trkpt>
      <trkpt lat="26.121745" lon="-80.104216">
        <ele>0.969904</ele>
        <time>2025-04-13T07:33:08.000Z</time>
      </trkpt>
      <trkpt lat="26.122559" lon="-80.104124">
        <ele>0.966162</ele>
        <time>2025-04-13T07:33:17.000Z</time>
      </trkpt>
      <trkpt lat="26.12257" lon="-80.104116">
        <ele>0.966632</ele>
        <time>2025-04-13T07:33:17.000Z</time>
      </trkpt>
      <trkpt lat="26.123407" lon="-80.103996">
        <ele>0.993146</ele>
        <time>2025-04-13T07:33:26.000Z</time>
      </trkpt>
      <trkpt lat="26.123605" lon="-80.10398">
        <ele>0.999113</ele>
        <time>2025-04-13T07:33:28.000Z</time>
      </trkpt>
      <trkpt lat="26.123832" lon="-80.103936">
        <ele>1.023284</ele>
        <time>2025-04-13T07:33:31.000Z</time>
      </trkpt>
      <trkpt lat="26.124184" lon="-80.103869">
        <ele>1.096383</ele>
        <time>2025-04-13T07:33:35.000Z</time>
      </trkpt>
      <trkpt lat="26.124404" lon="-80.103826">
        <ele>1.139307</ele>
        <time>2025-04-13T07:33:37.000Z</time>
      </trkpt>
      <trkpt lat="26.125223" lon="-80.103661">
        <ele>1.306982</ele>
        <time>2025-04-13T07:33:46.000Z</time>
      </trkpt>
      <trkpt lat="26.125875" lon="-80.103558">
        <ele>1.366668</ele>
        <time>2025-04-13T07:33:53.000Z</time>
      </trkpt>
      <trkpt lat="26.126974" lon="-80.103497">
        <ele>1.381776</ele>
        <time>2025-04-13T07:34:05.000Z</time>
      </trkpt>
      <trkpt lat="26.127274" lon="-80.103481">
        <ele>1.385723</ele>
        <time>2025-04-13T07:34:08.000Z</time>
      </trkpt>
      <trkpt lat="26.128017" lon="-80.103419">
        <ele>1.119644</ele>
        <time>2025-04-13T07:34:16.000Z</time>
      </trkpt>
      <trkpt lat="26.128643" lon="-80.103397">
        <ele>0.887502</ele>
        <time>2025-04-13T07:34:23.000Z</time>
      </trkpt>
      <trkpt lat="26.12907" lon="-80.103365">
        <ele>0.733502</ele>
        <time>2025-04-13T07:34:28.000Z</time>
      </trkpt>
      <trkpt lat="26.129831" lon="-80.103327">
        <ele>0.65312</ele>
        <time>2025-04-13T07:34:36.000Z</time>
      </trkpt>
      <trkpt lat="26.130402" lon="-80.103315">
        <ele>0.598194</ele>
        <time>2025-04-13T07:34:42.000Z</time>
      </trkpt>
      <trkpt lat="26.130723" lon="-80.103313">
        <ele>0.567756</ele>
        <time>2025-04-13T07:34:46.000Z</time>
      </trkpt>
      <trkpt lat="26.1311" lon="-80.103297">
        <ele>0.583363</ele>
        <time>2025-04-13T07:34:50.000Z</time>
      </trkpt>
      <trkpt lat="26.131185" lon="-80.103291">
        <ele>0.597645</ele>
        <time>2025-04-13T07:34:51.000Z</time>
      </trkpt>
      <trkpt lat="26.131269" lon="-80.103288">
        <ele>0.609978</ele>
        <time>2025-04-13T07:34:52.000Z</time>
      </trkpt>
      <trkpt lat="26.131961" lon="-80.103285">
        <ele>0.713541</ele>
        <time>2025-04-13T07:35:00.000Z</time>
      </trkpt>
      <trkpt lat="26.132506" lon="-80.103265">
        <ele>0.795185</ele>
        <time>2025-04-13T07:35:06.000Z</time>
      </trkpt>
      <trkpt lat="26.132881" lon="-80.103259">
        <ele>0.846939</ele>
        <time>2025-04-13T07:35:10.000Z</time>
      </trkpt>
      <trkpt lat="26.133221" lon="-80.103232">
        <ele>0.892072</ele>
        <time>2025-04-13T07:35:14.000Z</time>
      </trkpt>
      <trkpt lat="26.133304" lon="-80.103227">
        <ele>0.905113</ele>
        <time>2025-04-13T07:35:15.000Z</time>
      </trkpt>
      <trkpt lat="26.133393" lon="-80.10323">
        <ele>0.916718</ele>
        <time>2025-04-13T07:35:16.000Z</time>
      </trkpt>
      <trkpt lat="26.136173" lon="-80.103087">
        <ele>1.022894</ele>
        <time>2025-04-13T07:35:47.000Z</time>
      </trkpt>
      <trkpt lat="26.136441" lon="-80.103136">
        <ele>1.026128</ele>
        <time>2025-04-13T07:35:50.000Z</time>
      </trkpt>
      <trkpt lat="26.136797" lon="-80.103113">
        <ele>1.037417</ele>
        <time>2025-04-13T07:35:54.000Z</time>
      </trkpt>
      <trkpt lat="26.136863" lon="-80.103123">
        <ele>1.040072</ele>
        <time>2025-04-13T07:35:55.000Z</time>
      </trkpt>
      <trkpt lat="26.136963" lon="-80.103107">
        <ele>1.043244</ele>
        <time>2025-04-13T07:35:56.000Z</time>
      </trkpt>
      <trkpt lat="26.137306" lon="-80.103084">
        <ele>1.054588</ele>
        <time>2025-04-13T07:36:00.000Z</time>
      </trkpt>
      <trkpt lat="26.137387" lon="-80.103062">
        <ele>1.057447</ele>
        <time>2025-04-13T07:36:01.000Z</time>
      </trkpt>
      <trkpt lat="26.137807" lon="-80.103009">
        <ele>1.071041</ele>
        <time>2025-04-13T07:36:06.000Z</time>
      </trkpt>
      <trkpt lat="26.137982" lon="-80.103002">
        <ele>1.077151</ele>
        <time>2025-04-13T07:36:08.000Z</time>
      </trkpt>
      <trkpt lat="26.138113" lon="-80.102976">
        <ele>1.072495</ele>
        <time>2025-04-13T07:36:09.000Z</time>
      </trkpt>
      <trkpt lat="26.138207" lon="-80.102908">
        <ele>1.055473</ele>
        <time>2025-04-13T07:36:10.000Z</time>
      </trkpt>
      <trkpt lat="26.138959" lon="-80.102826">
        <ele>0.94209</ele>
        <time>2025-04-13T07:36:18.000Z</time>
      </trkpt>
      <trkpt lat="26.140187" lon="-80.102699">
        <ele>0.853067</ele>
        <time>2025-04-13T07:36:32.000Z</time>
      </trkpt>
      <trkpt lat="26.140579" lon="-80.102637">
        <ele>0.903621</ele>
        <time>2025-04-13T07:36:36.000Z</time>
      </trkpt>
      <trkpt lat="26.141259" lon="-80.102556">
        <ele>0.988837</ele>
        <time>2025-04-13T07:36:44.000Z</time>
      </trkpt>
      <trkpt lat="26.142057" lon="-80.102518">
        <ele>1.155214</ele>
        <time>2025-04-13T07:36:53.000Z</time>
      </trkpt>
      <trkpt lat="26.142876" lon="-80.102417">
        <ele>1.377928</ele>
        <time>2025-04-13T07:37:02.000Z</time>
      </trkpt>
      <trkpt lat="26.143989" lon="-80.102261">
        <ele>1.382554</ele>
        <time>2025-04-13T07:37:14.000Z</time>
      </trkpt>
      <trkpt lat="26.144616" lon="-80.102177">
        <ele>1.222694</ele>
        <time>2025-04-13T07:37:21.000Z</time>
      </trkpt>
      <trkpt lat="26.144648" lon="-80.102155">
        <ele>1.215779</ele>
        <time>2025-04-13T07:37:21.000Z</time>
      </trkpt>
      <trkpt lat="26.144961" lon="-80.102077">
        <ele>1.13518</ele>
        <time>2025-04-13T07:37:25.000Z</time>
      </trkpt>
      <trkpt lat="26.14498" lon="-80.102051">
        <ele>1.127124</ele>
        <time>2025-04-13T07:37:25.000Z</time>
      </trkpt>
      <trkpt lat="26.145261" lon="-80.101961">
        <ele>1.0312</ele>
        <time>2025-04-13T07:37:28.000Z</time>
      </trkpt>
      <trkpt lat="26.145762" lon="-80.101849">
        <ele>0.766573</ele>
        <time>2025-04-13T07:37:34.000Z</time>
      </trkpt>
      <trkpt lat="26.14626" lon="-80.101772">
        <ele>0.51283</ele>
        <time>2025-04-13T07:37:40.000Z</time>
      </trkpt>
      <trkpt lat="26.146562" lon="-80.101718">
        <ele>0.350076</ele>
        <time>2025-04-13T07:37:43.000Z</time>
      </trkpt>
      <trkpt lat="26.147346" lon="-80.101595">
        <ele>0.284786</ele>
        <time>2025-04-13T07:37:52.000Z</time>
      </trkpt>
      <trkpt lat="26.147396" lon="-80.101581">
        <ele>0.302095</ele>
        <time>2025-04-13T07:37:53.000Z</time>
      </trkpt>
      <trkpt lat="26.147851" lon="-80.101511">
        <ele>0.457691</ele>
        <time>2025-04-13T07:37:58.000Z</time>
      </trkpt>
      <trkpt lat="26.148145" lon="-80.101472">
        <ele>0.559212</ele>
        <time>2025-04-13T07:38:01.000Z</time>
      </trkpt>
      <trkpt lat="26.148936" lon="-80.101338">
        <ele>0.781398</ele>
        <time>2025-04-13T07:38:10.000Z</time>
      </trkpt>
      <trkpt lat="26.149475" lon="-80.101226">
        <ele>0.831693</ele>
        <time>2025-04-13T07:38:16.000Z</time>
      </trkpt>
      <trkpt lat="26.14971" lon="-80.101168">
        <ele>0.85452</ele>
        <time>2025-04-13T07:38:19.000Z</time>
      </trkpt>
      <trkpt lat="26.149733" lon="-80.10116">
        <ele>0.856638</ele>
        <time>2025-04-13T07:38:19.000Z</time>
      </trkpt>
      <trkpt lat="26.150526" lon="-80.101085">
        <ele>0.931504</ele>
        <time>2025-04-13T07:38:28.000Z</time>
      </trkpt>
      <trkpt lat="26.150564" lon="-80.101081">
        <ele>0.972599</ele>
        <time>2025-04-13T07:38:28.000Z</time>
      </trkpt>
      <trkpt lat="26.151308" lon="-80.101003">
        <ele>1.599363</ele>
        <time>2025-04-13T07:38:36.000Z</time>
      </trkpt>
      <trkpt lat="26.151821" lon="-80.100948">
        <ele>2.026131</ele>
        <time>2025-04-13T07:38:42.000Z</time>
      </trkpt>
      <trkpt lat="26.15212" lon="-80.10096">
        <ele>2.264881</ele>
        <time>2025-04-13T07:38:45.000Z</time>
      </trkpt>
      <trkpt lat="26.153006" lon="-80.101115">
        <ele>3.089769</ele>
        <time>2025-04-13T07:38:55.000Z</time>
      </trkpt>
      <trkpt lat="26.153163" lon="-80.101128">
        <ele>3.228716</ele>
        <time>2025-04-13T07:38:57.000Z</time>
      </trkpt>
      <trkpt lat="26.153442" lon="-80.101093">
        <ele>3.487923</ele>
        <time>2025-04-13T07:39:00.000Z</time>
      </trkpt>
      <trkpt lat="26.153768" lon="-80.10109">
        <ele>3.798653</ele>
        <time>2025-04-13T07:39:04.000Z</time>
      </trkpt>
      <trkpt lat="26.154138" lon="-80.101115">
        <ele>4.110223</ele>
        <time>2025-04-13T07:39:08.000Z</time>
      </trkpt>
      <trkpt lat="26.154285" lon="-80.101128">
        <ele>4.1475</ele>
        <time>2025-04-13T07:39:10.000Z</time>
      </trkpt>
      <trkpt lat="26.155171" lon="-80.101144">
        <ele>4.375673</ele>
        <time>2025-04-13T07:39:20.000Z</time>
      </trkpt>
      <trkpt lat="26.155515" lon="-80.101129">
        <ele>4.463086</ele>
        <time>2025-04-13T07:39:24.000Z</time>
      </trkpt>
      <trkpt lat="26.156402" lon="-80.101146">
        <ele>4.450511</ele>
        <time>2025-04-13T07:39:34.000Z</time>
      </trkpt>
      <trkpt lat="26.156589" lon="-80.101135">
        <ele>4.410111</ele>
        <time>2025-04-13T07:39:36.000Z</time>
      </trkpt>
      <trkpt lat="26.157146" lon="-80.10115">
        <ele>4.292117</ele>
        <time>2025-04-13T07:39:42.000Z</time>
      </trkpt>
      <trkpt lat="26.157286" lon="-80.10114">
        <ele>4.262092</ele>
        <time>2025-04-13T07:39:44.000Z</time>
      </trkpt>
      <trkpt lat="26.157777" lon="-80.101143">
        <ele>4.152691</ele>
        <time>2025-04-13T07:39:49.000Z</time>
      </trkpt>
      <trkpt lat="26.15793" lon="-80.101143">
        <ele>4.108053</ele>
        <time>2025-04-13T07:39:51.000Z</time>
      </trkpt>
      <trkpt lat="26.159625" lon="-80.101136">
        <ele>3.658022</ele>
        <time>2025-04-13T07:40:10.000Z</time>
      </trkpt>
      <trkpt lat="26.160298" lon="-80.101137">
        <ele>3.621403</ele>
        <time>2025-04-13T07:40:17.000Z</time>
      </trkpt>
      <trkpt lat="26.16064" lon="-80.101123">
        <ele>3.602614</ele>
        <time>2025-04-13T07:40:21.000Z</time>
      </trkpt>
      <trkpt lat="26.161153" lon="-80.101133">
        <ele>3.574847</ele>
        <time>2025-04-13T07:40:27.000Z</time>
      </trkpt>
      <trkpt lat="26.161542" lon="-80.101079">
        <ele>3.494717</ele>
        <time>2025-04-13T07:40:31.000Z</time>
      </trkpt>
      <trkpt lat="26.161706" lon="-80.101062">
        <ele>3.452956</ele>
        <time>2025-04-13T07:40:33.000Z</time>
      </trkpt>
      <trkpt lat="26.16288" lon="-80.100912">
        <ele>3.125665</ele>
        <time>2025-04-13T07:40:46.000Z</time>
      </trkpt>
      <trkpt lat="26.163527" lon="-80.100877">
        <ele>3.11233</ele>
        <time>2025-04-13T07:40:53.000Z</time>
      </trkpt>
      <trkpt lat="26.163513" lon="-80.100865">
        <ele>3.11241</ele>
        <time>2025-04-13T07:40:53.000Z</time>
      </trkpt>
      <trkpt lat="26.163528" lon="-80.100863">
        <ele>3.112588</ele>
        <time>2025-04-13T07:40:53.000Z</time>
      </trkpt>
      <trkpt lat="26.163531" lon="-80.100881">
        <ele>3.112782</ele>
        <time>2025-04-13T07:40:53.000Z</time>
      </trkpt>
      <trkpt lat="26.16359" lon="-80.10086">
        <ele>3.117664</ele>
        <time>2025-04-13T07:40:54.000Z</time>
      </trkpt>
      <trkpt lat="26.163592" lon="-80.10099">
        <ele>3.127526</ele>
        <time>2025-04-13T07:40:55.000Z</time>
      </trkpt>
      <trkpt lat="26.16333" lon="-80.101009">
        <ele>3.150938</ele>
        <time>2025-04-13T07:40:58.000Z</time>
      </trkpt>
      <trkpt lat="26.162904" lon="-80.101037">
        <ele>3.188846</ele>
        <time>2025-04-13T07:41:03.000Z</time>
      </trkpt>
      <trkpt lat="26.16187" lon="-80.101176">
        <ele>3.339371</ele>
        <time>2025-04-13T07:41:15.000Z</time>
      </trkpt>
      <trkpt lat="26.161648" lon="-80.101196">
        <ele>3.385692</ele>
        <time>2025-04-13T07:41:17.000Z</time>
      </trkpt>
      <trkpt lat="26.161028" lon="-80.101246">
        <ele>3.507636</ele>
        <time>2025-04-13T07:41:24.000Z</time>
      </trkpt>
      <trkpt lat="26.160649" lon="-80.101246">
        <ele>3.583912</ele>
        <time>2025-04-13T07:41:28.000Z</time>
      </trkpt>
      <trkpt lat="26.160025" lon="-80.101261">
        <ele>3.625931</ele>
        <time>2025-04-13T07:41:35.000Z</time>
      </trkpt>
      <trkpt lat="26.159962" lon="-80.101257">
        <ele>3.629828</ele>
        <time>2025-04-13T07:41:36.000Z</time>
      </trkpt>
      <trkpt lat="26.159627" lon="-80.101267">
        <ele>3.650376</ele>
        <time>2025-04-13T07:41:40.000Z</time>
      </trkpt>
      <trkpt lat="26.158841" lon="-80.101267">
        <ele>3.698528</ele>
        <time>2025-04-13T07:41:49.000Z</time>
      </trkpt>
      <trkpt lat="26.158464" lon="-80.101268">
        <ele>3.770488</ele>
        <time>2025-04-13T07:41:53.000Z</time>
      </trkpt>
      <trkpt lat="26.157868" lon="-80.10126">
        <ele>3.889163</ele>
        <time>2025-04-13T07:42:00.000Z</time>
      </trkpt>
      <trkpt lat="26.157779" lon="-80.101274">
        <ele>3.909471</ele>
        <time>2025-04-13T07:42:01.000Z</time>
      </trkpt>
      <trkpt lat="26.157363" lon="-80.101262">
        <ele>3.990706</ele>
        <time>2025-04-13T07:42:06.000Z</time>
      </trkpt>
      <trkpt lat="26.156972" lon="-80.101272">
        <ele>4.070379</ele>
        <time>2025-04-13T07:42:10.000Z</time>
      </trkpt>
      <trkpt lat="26.156763" lon="-80.101274">
        <ele>4.121874</ele>
        <time>2025-04-13T07:42:12.000Z</time>
      </trkpt>
      <trkpt lat="26.156703" lon="-80.101273">
        <ele>4.1403</ele>
        <time>2025-04-13T07:42:13.000Z</time>
      </trkpt>
      <trkpt lat="26.156497" lon="-80.101266">
        <ele>4.190813</ele>
        <time>2025-04-13T07:42:15.000Z</time>
      </trkpt>
      <trkpt lat="26.156341" lon="-80.101265">
        <ele>4.22963</ele>
        <time>2025-04-13T07:42:17.000Z</time>
      </trkpt>
      <trkpt lat="26.155948" lon="-80.10127">
        <ele>4.327909</ele>
        <time>2025-04-13T07:42:21.000Z</time>
      </trkpt>
      <trkpt lat="26.155526" lon="-80.101273">
        <ele>4.431677</ele>
        <time>2025-04-13T07:42:26.000Z</time>
      </trkpt>
      <trkpt lat="26.154797" lon="-80.101264">
        <ele>4.31545</ele>
        <time>2025-04-13T07:42:34.000Z</time>
      </trkpt>
      <trkpt lat="26.154603" lon="-80.101257">
        <ele>4.223752</ele>
        <time>2025-04-13T07:42:36.000Z</time>
      </trkpt>
      <trkpt lat="26.154257" lon="-80.101256">
        <ele>4.073461</ele>
        <time>2025-04-13T07:42:40.000Z</time>
      </trkpt>
      <trkpt lat="26.154114" lon="-80.101236">
        <ele>4.008231</ele>
        <time>2025-04-13T07:42:42.000Z</time>
      </trkpt>
      <trkpt lat="26.153677" lon="-80.101194">
        <ele>3.805116</ele>
        <time>2025-04-13T07:42:47.000Z</time>
      </trkpt>
      <trkpt lat="26.153148" lon="-80.101127">
        <ele>3.381424</ele>
        <time>2025-04-13T07:42:53.000Z</time>
      </trkpt>
      <trkpt lat="26.15301" lon="-80.101114">
        <ele>3.20968</ele>
        <time>2025-04-13T07:42:55.000Z</time>
      </trkpt>
      <trkpt lat="26.152107" lon="-80.10095">
        <ele>2.166912</ele>
        <time>2025-04-13T07:43:05.000Z</time>
      </trkpt>
      <trkpt lat="26.151823" lon="-80.100939">
        <ele>1.837702</ele>
        <time>2025-04-13T07:43:08.000Z</time>
      </trkpt>
      <trkpt lat="26.151316" lon="-80.10101">
        <ele>1.490286</ele>
        <time>2025-04-13T07:43:14.000Z</time>
      </trkpt>
      <trkpt lat="26.150567" lon="-80.101082">
        <ele>1.173903</ele>
        <time>2025-04-13T07:43:22.000Z</time>
      </trkpt>
      <trkpt lat="26.150511" lon="-80.101096">
        <ele>1.153157</ele>
        <time>2025-04-13T07:43:23.000Z</time>
      </trkpt>
      <trkpt lat="26.149731" lon="-80.101164">
        <ele>0.848948</ele>
        <time>2025-04-13T07:43:32.000Z</time>
      </trkpt>
      <trkpt lat="26.149722" lon="-80.101175">
        <ele>0.844251</ele>
        <time>2025-04-13T07:43:32.000Z</time>
      </trkpt>
      <trkpt lat="26.149465" lon="-80.101228">
        <ele>0.79359</ele>
        <time>2025-04-13T07:43:35.000Z</time>
      </trkpt>
      <trkpt lat="26.148925" lon="-80.10134">
        <ele>0.681946</ele>
        <time>2025-04-13T07:43:41.000Z</time>
      </trkpt>
      <trkpt lat="26.148155" lon="-80.101474">
        <ele>0.521662</ele>
        <time>2025-04-13T07:43:50.000Z</time>
      </trkpt>
      <trkpt lat="26.147844" lon="-80.101506">
        <ele>0.483106</ele>
        <time>2025-04-13T07:43:53.000Z</time>
      </trkpt>
      <trkpt lat="26.147398" lon="-80.101579">
        <ele>0.433411</ele>
        <time>2025-04-13T07:43:58.000Z</time>
      </trkpt>
      <trkpt lat="26.147347" lon="-80.101598">
        <ele>0.42789</ele>
        <time>2025-04-13T07:43:59.000Z</time>
      </trkpt>
      <trkpt lat="26.146564" lon="-80.101716">
        <ele>0.340816</ele>
        <time>2025-04-13T07:44:08.000Z</time>
      </trkpt>
      <trkpt lat="26.146259" lon="-80.101781">
        <ele>0.344772</ele>
        <time>2025-04-13T07:44:11.000Z</time>
      </trkpt>
      <trkpt lat="26.145761" lon="-80.101862">
        <ele>0.699165</ele>
        <time>2025-04-13T07:44:17.000Z</time>
      </trkpt>
      <trkpt lat="26.145258" lon="-80.101976">
        <ele>1.068757</ele>
        <time>2025-04-13T07:44:23.000Z</time>
      </trkpt>
      <trkpt lat="26.144993" lon="-80.10205">
        <ele>1.279432</ele>
        <time>2025-04-13T07:44:26.000Z</time>
      </trkpt>
      <trkpt lat="26.144961" lon="-80.102071">
        <ele>1.30272</ele>
        <time>2025-04-13T07:44:26.000Z</time>
      </trkpt>
      <trkpt lat="26.144648" lon="-80.10216">
        <ele>1.535444</ele>
        <time>2025-04-13T07:44:30.000Z</time>
      </trkpt>
      <trkpt lat="26.144626" lon="-80.102176">
        <ele>1.555437</ele>
        <time>2025-04-13T07:44:30.000Z</time>
      </trkpt>
      <trkpt lat="26.144412" lon="-80.102267">
        <ele>1.622843</ele>
        <time>2025-04-13T07:44:33.000Z</time>
      </trkpt>
      <trkpt lat="26.144213" lon="-80.102305">
        <ele>1.641228</ele>
        <time>2025-04-13T07:44:35.000Z</time>
      </trkpt>
      <trkpt lat="26.142884" lon="-80.102488">
        <ele>1.765749</ele>
        <time>2025-04-13T07:44:50.000Z</time>
      </trkpt>
      <trkpt lat="26.140595" lon="-80.10273">
        <ele>1.149643</ele>
        <time>2025-04-13T07:45:16.000Z</time>
      </trkpt>
      <trkpt lat="26.13987" lon="-80.102815">
        <ele>1.223984</ele>
        <time>2025-04-13T07:45:24.000Z</time>
      </trkpt>
      <trkpt lat="26.138957" lon="-80.102924">
        <ele>1.293638</ele>
        <time>2025-04-13T07:45:34.000Z</time>
      </trkpt>
      <trkpt lat="26.138218" lon="-80.103034">
        <ele>1.29937</ele>
        <time>2025-04-13T07:45:42.000Z</time>
      </trkpt>
      <trkpt lat="26.138107" lon="-80.102974">
        <ele>1.300184</ele>
        <time>2025-04-13T07:45:43.000Z</time>
      </trkpt>
      <trkpt lat="26.137995" lon="-80.103002">
        <ele>1.301141</ele>
        <time>2025-04-13T07:45:44.000Z</time>
      </trkpt>
      <trkpt lat="26.137807" lon="-80.103025">
        <ele>1.302555</ele>
        <time>2025-04-13T07:45:46.000Z</time>
      </trkpt>
      <trkpt lat="26.1374" lon="-80.103072">
        <ele>1.307111</ele>
        <time>2025-04-13T07:45:51.000Z</time>
      </trkpt>
      <trkpt lat="26.137301" lon="-80.103079">
        <ele>1.313577</ele>
        <time>2025-04-13T07:45:52.000Z</time>
      </trkpt>
      <trkpt lat="26.136959" lon="-80.10311">
        <ele>1.339268</ele>
        <time>2025-04-13T07:45:56.000Z</time>
      </trkpt>
      <trkpt lat="26.136868" lon="-80.103124">
        <ele>1.346454</ele>
        <time>2025-04-13T07:45:57.000Z</time>
      </trkpt>
      <trkpt lat="26.136791" lon="-80.103114">
        <ele>1.352429</ele>
        <time>2025-04-13T07:45:58.000Z</time>
      </trkpt>
      <trkpt lat="26.136455" lon="-80.103134">
        <ele>1.378002</ele>
        <time>2025-04-13T07:46:02.000Z</time>
      </trkpt>
      <trkpt lat="26.136169" lon="-80.103198">
        <ele>1.398731</ele>
        <time>2025-04-13T07:46:05.000Z</time>
      </trkpt>
      <trkpt lat="26.133403" lon="-80.103332">
        <ele>1.534365</ele>
        <time>2025-04-13T07:46:36.000Z</time>
      </trkpt>
      <trkpt lat="26.13335" lon="-80.10334">
        <ele>1.52387</ele>
        <time>2025-04-13T07:46:37.000Z</time>
      </trkpt>
      <trkpt lat="26.133259" lon="-80.103348">
        <ele>1.501686</ele>
        <time>2025-04-13T07:46:38.000Z</time>
      </trkpt>
      <trkpt lat="26.133224" lon="-80.103354">
        <ele>1.489998</ele>
        <time>2025-04-13T07:46:38.000Z</time>
      </trkpt>
      <trkpt lat="26.13261" lon="-80.103365">
        <ele>1.344348</ele>
        <time>2025-04-13T07:46:45.000Z</time>
      </trkpt>
      <trkpt lat="26.132515" lon="-80.103366">
        <ele>1.321706</ele>
        <time>2025-04-13T07:46:46.000Z</time>
      </trkpt>
      <trkpt lat="26.132324" lon="-80.103366">
        <ele>1.276647</ele>
        <time>2025-04-13T07:46:48.000Z</time>
      </trkpt>
      <trkpt lat="26.131965" lon="-80.103388">
        <ele>1.206726</ele>
        <time>2025-04-13T07:46:52.000Z</time>
      </trkpt>
      <trkpt lat="26.131911" lon="-80.103385">
        <ele>1.206105</ele>
        <time>2025-04-13T07:46:53.000Z</time>
      </trkpt>
      <trkpt lat="26.131281" lon="-80.103404">
        <ele>1.199884</ele>
        <time>2025-04-13T07:47:00.000Z</time>
      </trkpt>
      <trkpt lat="26.131231" lon="-80.103397">
        <ele>1.199385</ele>
        <time>2025-04-13T07:47:01.000Z</time>
      </trkpt>
      <trkpt lat="26.131157" lon="-80.103397">
        <ele>1.198609</ele>
        <time>2025-04-13T07:47:02.000Z</time>
      </trkpt>
      <trkpt lat="26.131104" lon="-80.103413">
        <ele>1.198123</ele>
        <time>2025-04-13T07:47:03.000Z</time>
      </trkpt>
      <trkpt lat="26.13048" lon="-80.103417">
        <ele>1.191996</ele>
        <time>2025-04-13T07:47:10.000Z</time>
      </trkpt>
      <trkpt lat="26.130395" lon="-80.103427">
        <ele>1.19121</ele>
        <time>2025-04-13T07:47:11.000Z</time>
      </trkpt>
      <trkpt lat="26.129837" lon="-80.103444">
        <ele>1.251238</ele>
        <time>2025-04-13T07:47:17.000Z</time>
      </trkpt>
      <trkpt lat="26.129778" lon="-80.103436">
        <ele>1.260026</ele>
        <time>2025-04-13T07:47:18.000Z</time>
      </trkpt>
      <trkpt lat="26.129121" lon="-80.103467">
        <ele>1.364791</ele>
        <time>2025-04-13T07:47:25.000Z</time>
      </trkpt>
      <trkpt lat="26.129028" lon="-80.103472">
        <ele>1.378932</ele>
        <time>2025-04-13T07:47:26.000Z</time>
      </trkpt>
      <trkpt lat="26.12802" lon="-80.103524">
        <ele>1.678609</ele>
        <time>2025-04-13T07:47:37.000Z</time>
      </trkpt>
      <trkpt lat="26.12751" lon="-80.103566">
        <ele>1.935542</ele>
        <time>2025-04-13T07:47:43.000Z</time>
      </trkpt>
      <trkpt lat="26.127264" lon="-80.103578">
        <ele>2.055814</ele>
        <time>2025-04-13T07:47:46.000Z</time>
      </trkpt>
      <trkpt lat="26.126588" lon="-80.103621">
        <ele>2.348428</ele>
        <time>2025-04-13T07:47:54.000Z</time>
      </trkpt>
      <trkpt lat="26.125956" lon="-80.103642">
        <ele>2.10326</ele>
        <time>2025-04-13T07:48:01.000Z</time>
      </trkpt>
      <trkpt lat="26.125958" lon="-80.103634">
        <ele>2.102019</ele>
        <time>2025-04-13T07:48:01.000Z</time>
      </trkpt>
      <trkpt lat="26.125957" lon="-80.103632">
        <ele>2.100431</ele>
        <time>2025-04-13T07:48:01.000Z</time>
      </trkpt>
      <trkpt lat="26.125944" lon="-80.103628">
        <ele>2.100435</ele>
        <time>2025-04-13T07:48:01.000Z</time>
      </trkpt>
      <trkpt lat="26.125959" lon="-80.103642">
        <ele>2.09972</ele>
        <time>2025-04-13T07:48:01.000Z</time>
      </trkpt>
      <trkpt lat="26.125446" lon="-80.103677">
        <ele>1.898988</ele>
        <time>2025-04-13T07:48:07.000Z</time>
      </trkpt>
      <trkpt lat="26.124945" lon="-80.103718">
        <ele>1.698291</ele>
        <time>2025-04-13T07:48:13.000Z</time>
      </trkpt>
      <trkpt lat="26.124941" lon="-80.103724">
        <ele>1.698288</ele>
        <time>2025-04-13T07:48:13.000Z</time>
      </trkpt>
      <trkpt lat="26.124932" lon="-80.103724">
        <ele>1.698294</ele>
        <time>2025-04-13T07:48:13.000Z</time>
      </trkpt>
      <trkpt lat="26.124931" lon="-80.103728">
        <ele>1.697581</ele>
        <time>2025-04-13T07:48:13.000Z</time>
      </trkpt>
      <trkpt lat="26.124389" lon="-80.103829">
        <ele>1.510211</ele>
        <time>2025-04-13T07:48:19.000Z</time>
      </trkpt>
      <trkpt lat="26.123832" lon="-80.103922">
        <ele>1.330409</ele>
        <time>2025-04-13T07:48:25.000Z</time>
      </trkpt>
      <trkpt lat="26.123832" lon="-80.103932">
        <ele>1.330408</ele>
        <time>2025-04-13T07:48:25.000Z</time>
      </trkpt>
      <trkpt lat="26.123818" lon="-80.103944">
        <ele>1.328123</ele>
        <time>2025-04-13T07:48:25.000Z</time>
      </trkpt>
      <trkpt lat="26.12321" lon="-80.104038">
        <ele>1.128043</ele>
        <time>2025-04-13T07:48:32.000Z</time>
      </trkpt>
      <trkpt lat="26.122564" lon="-80.104121">
        <ele>1.070998</ele>
        <time>2025-04-13T07:48:39.000Z</time>
      </trkpt>
      <trkpt lat="26.122577" lon="-80.104115">
        <ele>1.071003</ele>
        <time>2025-04-13T07:48:39.000Z</time>
      </trkpt>
      <trkpt lat="26.12259" lon="-80.104122">
        <ele>1.070584</ele>
        <time>2025-04-13T07:48:39.000Z</time>
      </trkpt>
      <trkpt lat="26.122008" lon="-80.104193">
        <ele>1.052583</ele>
        <time>2025-04-13T07:48:46.000Z</time>
      </trkpt>
      <trkpt lat="26.121439" lon="-80.104253">
        <ele>1.034744</ele>
        <time>2025-04-13T07:48:52.000Z</time>
      </trkpt>
      <trkpt lat="26.121441" lon="-80.104256">
        <ele>1.034757</ele>
        <time>2025-04-13T07:48:52.000Z</time>
      </trkpt>
      <trkpt lat="26.120948" lon="-80.104343">
        <ele>1.080171</ele>
        <time>2025-04-13T07:48:58.000Z</time>
      </trkpt>
      <trkpt lat="26.12046" lon="-80.10441">
        <ele>1.146147</ele>
        <time>2025-04-13T07:49:03.000Z</time>
      </trkpt>
      <trkpt lat="26.12046" lon="-80.104414">
        <ele>1.146314</ele>
        <time>2025-04-13T07:49:03.000Z</time>
      </trkpt>
      <trkpt lat="26.120097" lon="-80.104466">
        <ele>1.192954</ele>
        <time>2025-04-13T07:49:07.000Z</time>
      </trkpt>
      <trkpt lat="26.120009" lon="-80.104486">
        <ele>1.204917</ele>
        <time>2025-04-13T07:49:08.000Z</time>
      </trkpt>
      <trkpt lat="26.120018" lon="-80.104474">
        <ele>1.204915</ele>
        <time>2025-04-13T07:49:08.000Z</time>
      </trkpt>
      <trkpt lat="26.119272" lon="-80.104556">
        <ele>1.236185</ele>
        <time>2025-04-13T07:49:16.000Z</time>
      </trkpt>
      <trkpt lat="26.119396" lon="-80.104552">
        <ele>1.22038</ele>
        <time>2025-04-13T07:49:17.000Z</time>
      </trkpt>
      <trkpt lat="26.120099" lon="-80.104466">
        <ele>1.131151</ele>
        <time>2025-04-13T07:49:25.000Z</time>
      </trkpt>
      <trkpt lat="26.12095" lon="-80.104341">
        <ele>1.035461</ele>
        <time>2025-04-13T07:49:35.000Z</time>
      </trkpt>
      <trkpt lat="26.121441" lon="-80.104268">
        <ele>1.016877</ele>
        <time>2025-04-13T07:49:41.000Z</time>
      </trkpt>
      <trkpt lat="26.121745" lon="-80.104223">
        <ele>1.005609</ele>
        <time>2025-04-13T07:49:44.000Z</time>
      </trkpt>
      <trkpt lat="26.12255" lon="-80.104117">
        <ele>0.976246</ele>
        <time>2025-04-13T07:49:53.000Z</time>
      </trkpt>
      <trkpt lat="26.122563" lon="-80.10412">
        <ele>0.975702</ele>
        <time>2025-04-13T07:49:53.000Z</time>
      </trkpt>
      <trkpt lat="26.123419" lon="-80.103996">
        <ele>1.00944</ele>
        <time>2025-04-13T07:50:03.000Z</time>
      </trkpt>
      <trkpt lat="26.123602" lon="-80.10398">
        <ele>1.017492</ele>
        <time>2025-04-13T07:50:05.000Z</time>
      </trkpt>
      <trkpt lat="26.123833" lon="-80.103931">
        <ele>1.027128</ele>
        <time>2025-04-13T07:50:08.000Z</time>
      </trkpt>
      <trkpt lat="26.124191" lon="-80.103869">
        <ele>1.042634</ele>
        <time>2025-04-13T07:50:12.000Z</time>
      </trkpt>
      <trkpt lat="26.124402" lon="-80.103829">
        <ele>1.057167</ele>
        <time>2025-04-13T07:50:14.000Z</time>
      </trkpt>
      <trkpt lat="26.125235" lon="-80.103666">
        <ele>1.283039</ele>
        <time>2025-04-13T07:50:23.000Z</time>
      </trkpt>
      <trkpt lat="26.125876" lon="-80.10354">
        <ele>1.460241</ele>
        <time>2025-04-13T07:50:30.000Z</time>
      </trkpt>
      <trkpt lat="26.126974" lon="-80.1035">
        <ele>1.337732</ele>
        <time>2025-04-13T07:50:42.000Z</time>
      </trkpt>
      <trkpt lat="26.127271" lon="-80.103478">
        <ele>1.269714</ele>
        <time>2025-04-13T07:50:45.000Z</time>
      </trkpt>
      <trkpt lat="26.128016" lon="-80.10343">
        <ele>1.091527</ele>
        <time>2025-04-13T07:50:53.000Z</time>
      </trkpt>
      <trkpt lat="26.128644" lon="-80.103384">
        <ele>0.925486</ele>
        <time>2025-04-13T07:51:00.000Z</time>
      </trkpt>
      <trkpt lat="26.129071" lon="-80.10337">
        <ele>0.815329</ele>
        <time>2025-04-13T07:51:05.000Z</time>
      </trkpt>
      <trkpt lat="26.129841" lon="-80.103331">
        <ele>0.632415</ele>
        <time>2025-04-13T07:51:14.000Z</time>
      </trkpt>
      <trkpt lat="26.130401" lon="-80.10332">
        <ele>0.605074</ele>
        <time>2025-04-13T07:51:20.000Z</time>
      </trkpt>
      <trkpt lat="26.130712" lon="-80.103311">
        <ele>0.589923</ele>
        <time>2025-04-13T07:51:23.000Z</time>
      </trkpt>
      <trkpt lat="26.131102" lon="-80.103295">
        <ele>0.571343</ele>
        <time>2025-04-13T07:51:27.000Z</time>
      </trkpt>
      <trkpt lat="26.131187" lon="-80.103291">
        <ele>0.566748</ele>
        <time>2025-04-13T07:51:28.000Z</time>
      </trkpt>
      <trkpt lat="26.131282" lon="-80.103304">
        <ele>0.56277</ele>
        <time>2025-04-13T07:51:29.000Z</time>
      </trkpt>
      <trkpt lat="26.13197" lon="-80.10327">
        <ele>0.654867</ele>
        <time>2025-04-13T07:51:37.000Z</time>
      </trkpt>
      <trkpt lat="26.132501" lon="-80.103264">
        <ele>0.790722</ele>
        <time>2025-04-13T07:51:43.000Z</time>
      </trkpt>
      <trkpt lat="26.132866" lon="-80.103246">
        <ele>0.882303</ele>
        <time>2025-04-13T07:51:47.000Z</time>
      </trkpt>
      <trkpt lat="26.133214" lon="-80.103232">
        <ele>0.967141</ele>
        <time>2025-04-13T07:51:51.000Z</time>
      </trkpt>
      <trkpt lat="26.133319" lon="-80.10323">
        <ele>0.991669</ele>
        <time>2025-04-13T07:51:52.000Z</time>
      </trkpt>
      <trkpt lat="26.133399" lon="-80.103239">
        <ele>1.000776</ele>
        <time>2025-04-13T07:51:53.000Z</time>
      </trkpt>
      <trkpt lat="26.136161" lon="-80.103088">
        <ele>1.045053</ele>
        <time>2025-04-13T07:52:24.000Z</time>
      </trkpt>
      <trkpt lat="26.13644" lon="-80.103134">
        <ele>1.047251</ele>
        <time>2025-04-13T07:52:27.000Z</time>
      </trkpt>
      <trkpt lat="26.136794" lon="-80.103114">
        <ele>1.049909</ele>
        <time>2025-04-13T07:52:31.000Z</time>
      </trkpt>
      <trkpt lat="26.136869" lon="-80.103108">
        <ele>1.050515</ele>
        <time>2025-04-13T07:52:32.000Z</time>
      </trkpt>
      <trkpt lat="26.13697" lon="-80.10311">
        <ele>1.050357</ele>
        <time>2025-04-13T07:52:33.000Z</time>
      </trkpt>
      <trkpt lat="26.137311" lon="-80.103072">
        <ele>1.043416</ele>
        <time>2025-04-13T07:52:37.000Z</time>
      </trkpt>
      <trkpt lat="26.137395" lon="-80.103068">
        <ele>1.041677</ele>
        <time>2025-04-13T07:52:38.000Z</time>
      </trkpt>
      <trkpt lat="26.137797" lon="-80.103018">
        <ele>1.033353</ele>
        <time>2025-04-13T07:52:42.000Z</time>
      </trkpt>
      <trkpt lat="26.137992" lon="-80.103003">
        <ele>1.029629</ele>
        <time>2025-04-13T07:52:44.000Z</time>
      </trkpt>
      <trkpt lat="26.13812" lon="-80.102972">
        <ele>1.027107</ele>
        <time>2025-04-13T07:52:45.000Z</time>
      </trkpt>
      <trkpt lat="26.138218" lon="-80.102912">
        <ele>1.024836</ele>
        <time>2025-04-13T07:52:46.000Z</time>
      </trkpt>
      <trkpt lat="26.138959" lon="-80.102836">
        <ele>0.982007</ele>
        <time>2025-04-13T07:52:54.000Z</time>
      </trkpt>
      <trkpt lat="26.140196" lon="-80.102706">
        <ele>0.818043</ele>
        <time>2025-04-13T07:53:08.000Z</time>
      </trkpt>
      <trkpt lat="26.140593" lon="-80.102643">
        <ele>0.802267</ele>
        <time>2025-04-13T07:53:12.000Z</time>
      </trkpt>
      <trkpt lat="26.141245" lon="-80.10255">
        <ele>0.97337</ele>
        <time>2025-04-13T07:53:19.000Z</time>
      </trkpt>
      <trkpt lat="26.142065" lon="-80.102519">
        <ele>1.181931</ele>
        <time>2025-04-13T07:53:28.000Z</time>
      </trkpt>
      <trkpt lat="26.142874" lon="-80.102429">
        <ele>1.335973</ele>
        <time>2025-04-13T07:53:37.000Z</time>
      </trkpt>
      <trkpt lat="26.143986" lon="-80.102267">
        <ele>1.515752</ele>
        <time>2025-04-13T07:53:49.000Z</time>
      </trkpt>
      <trkpt lat="26.144619" lon="-80.102162">
        <ele>1.247454</ele>
        <time>2025-04-13T07:53:56.000Z</time>
      </trkpt>
      <trkpt lat="26.144648" lon="-80.102162">
        <ele>1.233202</ele>
        <time>2025-04-13T07:53:56.000Z</time>
      </trkpt>
      <trkpt lat="26.144947" lon="-80.102059">
        <ele>1.067245</ele>
        <time>2025-04-13T07:53:59.000Z</time>
      </trkpt>
      <trkpt lat="26.144986" lon="-80.102049">
        <ele>1.050635</ele>
        <time>2025-04-13T07:53:59.000Z</time>
      </trkpt>
      <trkpt lat="26.145265" lon="-80.101977">
        <ele>0.900411</ele>
        <time>2025-04-13T07:54:02.000Z</time>
      </trkpt>
      <trkpt lat="26.14576" lon="-80.101861">
        <ele>0.636836</ele>
        <time>2025-04-13T07:54:08.000Z</time>
      </trkpt>
      <trkpt lat="26.146261" lon="-80.101778">
        <ele>0.536214</ele>
        <time>2025-04-13T07:54:14.000Z</time>
      </trkpt>
      <trkpt lat="26.14656" lon="-80.10173">
        <ele>0.485548</ele>
        <time>2025-04-13T07:54:17.000Z</time>
      </trkpt>
      <trkpt lat="26.147349" lon="-80.101588">
        <ele>0.357733</ele>
        <time>2025-04-13T07:54:26.000Z</time>
      </trkpt>
      <trkpt lat="26.147402" lon="-80.101587">
        <ele>0.349604</ele>
        <time>2025-04-13T07:54:27.000Z</time>
      </trkpt>
      <trkpt lat="26.147845" lon="-80.101504">
        <ele>0.389709</ele>
        <time>2025-04-13T07:54:32.000Z</time>
      </trkpt>
      <trkpt lat="26.148155" lon="-80.101474">
        <ele>0.477956</ele>
        <time>2025-04-13T07:54:35.000Z</time>
      </trkpt>
      <trkpt lat="26.148923" lon="-80.101334">
        <ele>0.713777</ele>
        <time>2025-04-13T07:54:44.000Z</time>
      </trkpt>
      <trkpt lat="26.14947" lon="-80.101226">
        <ele>0.869846</ele>
        <time>2025-04-13T07:54:50.000Z</time>
      </trkpt>
      <trkpt lat="26.149709" lon="-80.101179">
        <ele>0.920728</ele>
        <time>2025-04-13T07:54:53.000Z</time>
      </trkpt>
      <trkpt lat="26.149733" lon="-80.101172">
        <ele>0.925426</ele>
        <time>2025-04-13T07:54:53.000Z</time>
      </trkpt>
      <trkpt lat="26.150522" lon="-80.101097">
        <ele>1.084636</ele>
        <time>2025-04-13T07:55:02.000Z</time>
      </trkpt>
      <trkpt lat="26.150573" lon="-80.101092">
        <ele>1.094667</ele>
        <time>2025-04-13T07:55:03.000Z</time>
      </trkpt>
      <trkpt lat="26.15131" lon="-80.101001">
        <ele>1.384414</ele>
        <time>2025-04-13T07:55:11.000Z</time>
      </trkpt>
      <trkpt lat="26.15182" lon="-80.100941">
        <ele>1.969457</ele>
        <time>2025-04-13T07:55:17.000Z</time>
      </trkpt>
      <trkpt lat="26.152111" lon="-80.100959">
        <ele>2.296771</ele>
        <time>2025-04-13T07:55:20.000Z</time>
      </trkpt>
      <trkpt lat="26.153007" lon="-80.10111">
        <ele>3.304217</ele>
        <time>2025-04-13T07:55:30.000Z</time>
      </trkpt>
      <trkpt lat="26.153159" lon="-80.101131">
        <ele>3.391337</ele>
        <time>2025-04-13T07:55:32.000Z</time>
      </trkpt>
      <trkpt lat="26.153434" lon="-80.1011">
        <ele>3.553815</ele>
        <time>2025-04-13T07:55:35.000Z</time>
      </trkpt>
      <trkpt lat="26.153764" lon="-80.101094">
        <ele>3.748606</ele>
        <time>2025-04-13T07:55:39.000Z</time>
      </trkpt>
      <trkpt lat="26.154139" lon="-80.10113">
        <ele>3.960418</ele>
        <time>2025-04-13T07:55:43.000Z</time>
      </trkpt>
      <trkpt lat="26.154267" lon="-80.101139">
        <ele>4.045965</ele>
        <time>2025-04-13T07:55:44.000Z</time>
      </trkpt>
      <trkpt lat="26.155175" lon="-80.101139">
        <ele>4.363879</ele>
        <time>2025-04-13T07:55:54.000Z</time>
      </trkpt>
      <trkpt lat="26.155517" lon="-80.101144">
        <ele>4.397491</ele>
        <time>2025-04-13T07:55:58.000Z</time>
      </trkpt>
      <trkpt lat="26.15639" lon="-80.101148">
        <ele>4.483062</ele>
        <time>2025-04-13T07:56:08.000Z</time>
      </trkpt>
      <trkpt lat="26.156591" lon="-80.101136">
        <ele>4.487544</ele>
        <time>2025-04-13T07:56:10.000Z</time>
      </trkpt>
      <trkpt lat="26.157152" lon="-80.101149">
        <ele>4.323698</ele>
        <time>2025-04-13T07:56:16.000Z</time>
      </trkpt>
      <trkpt lat="26.157286" lon="-80.101148">
        <ele>4.282002</ele>
        <time>2025-04-13T07:56:17.000Z</time>
      </trkpt>
      <trkpt lat="26.15778" lon="-80.101135">
        <ele>4.138695</ele>
        <time>2025-04-13T07:56:22.000Z</time>
      </trkpt>
      <trkpt lat="26.157921" lon="-80.101135">
        <ele>4.092595</ele>
        <time>2025-04-13T07:56:24.000Z</time>
      </trkpt>
      <trkpt lat="26.159631" lon="-80.101127">
        <ele>3.695155</ele>
        <time>2025-04-13T07:56:43.000Z</time>
      </trkpt>
      <trkpt lat="26.160303" lon="-80.101138">
        <ele>3.572218</ele>
        <time>2025-04-13T07:56:50.000Z</time>
      </trkpt>
      <trkpt lat="26.160639" lon="-80.101134">
        <ele>3.546131</ele>
        <time>2025-04-13T07:56:54.000Z</time>
      </trkpt>
      <trkpt lat="26.161158" lon="-80.101131">
        <ele>3.507622</ele>
        <time>2025-04-13T07:57:00.000Z</time>
      </trkpt>
      <trkpt lat="26.161542" lon="-80.101087">
        <ele>3.477289</ele>
        <time>2025-04-13T07:57:04.000Z</time>
      </trkpt>
      <trkpt lat="26.161705" lon="-80.101061">
        <ele>3.465782</ele>
        <time>2025-04-13T07:57:06.000Z</time>
      </trkpt>
      <trkpt lat="26.162879" lon="-80.100916">
        <ele>3.198915</ele>
        <time>2025-04-13T07:57:19.000Z</time>
      </trkpt>
      <trkpt lat="26.16353" lon="-80.100878">
        <ele>3.030238</ele>
        <time>2025-04-13T07:57:26.000Z</time>
      </trkpt>
      <trkpt lat="26.163514" lon="-80.100867">
        <ele>3.029971</ele>
        <time>2025-04-13T07:57:26.000Z</time>
      </trkpt>
      <trkpt lat="26.163526" lon="-80.100876">
        <ele>3.029447</ele>
        <time>2025-04-13T07:57:26.000Z</time>
      </trkpt>
      <trkpt lat="26.163535" lon="-80.100872">
        <ele>3.028909</ele>
        <time>2025-04-13T07:57:26.000Z</time>
      </trkpt>
      <trkpt lat="26.163578" lon="-80.100869">
        <ele>3.014446</ele>
        <time>2025-04-13T07:57:26.000Z</time>
      </trkpt>
      <trkpt lat="26.163585" lon="-80.100988">
        <ele>2.985171</ele>
        <time>2025-04-13T07:57:27.000Z</time>
      </trkpt>
      <trkpt lat="26.163329" lon="-80.101">
        <ele>3.033661</ele>
        <time>2025-04-13T07:57:30.000Z</time>
      </trkpt>
      <trkpt lat="26.162897" lon="-80.101048">
        <ele>3.14529</ele>
        <time>2025-04-13T07:57:35.000Z</time>
      </trkpt>
      <trkpt lat="26.161872" lon="-80.101166">
        <ele>3.413113</ele>
        <time>2025-04-13T07:57:46.000Z</time>
      </trkpt>
      <trkpt lat="26.161638" lon="-80.101197">
        <ele>3.45474</ele>
        <time>2025-04-13T07:57:49.000Z</time>
      </trkpt>
      <trkpt lat="26.16103" lon="-80.101254">
        <ele>3.511854</ele>
        <time>2025-04-13T07:57:56.000Z</time>
      </trkpt>
      <trkpt lat="26.160641" lon="-80.101253">
        <ele>3.547606</ele>
        <time>2025-04-13T07:58:00.000Z</time>
      </trkpt>
      <trkpt lat="26.160021" lon="-80.101248">
        <ele>3.605488</ele>
        <time>2025-04-13T07:58:07.000Z</time>
      </trkpt>
      <trkpt lat="26.15997" lon="-80.101248">
        <ele>3.611363</ele>
        <time>2025-04-13T07:58:08.000Z</time>
      </trkpt>
      <trkpt lat="26.159634" lon="-80.101255">
        <ele>3.639017</ele>
        <time>2025-04-13T07:58:12.000Z</time>
      </trkpt>
      <trkpt lat="26.158847" lon="-80.101257">
        <ele>3.703771</ele>
        <time>2025-04-13T07:58:21.000Z</time>
      </trkpt>
      <trkpt lat="26.158478" lon="-80.101257">
        <ele>3.735314</ele>
        <time>2025-04-13T07:58:25.000Z</time>
      </trkpt>
      <trkpt lat="26.157879" lon="-80.101269">
        <ele>3.854047</ele>
        <time>2025-04-13T07:58:32.000Z</time>
      </trkpt>
      <trkpt lat="26.15777" lon="-80.101258">
        <ele>3.886948</ele>
        <time>2025-04-13T07:58:33.000Z</time>
      </trkpt>
      <trkpt lat="26.157355" lon="-80.101275">
        <ele>4.018567</ele>
        <time>2025-04-13T07:58:38.000Z</time>
      </trkpt>
      <trkpt lat="26.156981" lon="-80.101271">
        <ele>4.143733</ele>
        <time>2025-04-13T07:58:42.000Z</time>
      </trkpt>
      <trkpt lat="26.156775" lon="-80.101276">
        <ele>4.210517</ele>
        <time>2025-04-13T07:58:44.000Z</time>
      </trkpt>
      <trkpt lat="26.156686" lon="-80.10127">
        <ele>4.234387</ele>
        <time>2025-04-13T07:58:45.000Z</time>
      </trkpt>
      <trkpt lat="26.15649" lon="-80.101275">
        <ele>4.29988</ele>
        <time>2025-04-13T07:58:47.000Z</time>
      </trkpt>
      <trkpt lat="26.15634" lon="-80.10127">
        <ele>4.341256</ele>
        <time>2025-04-13T07:58:49.000Z</time>
      </trkpt>
      <trkpt lat="26.155941" lon="-80.101275">
        <ele>4.344088</ele>
        <time>2025-04-13T07:58:53.000Z</time>
      </trkpt>
      <trkpt lat="26.155532" lon="-80.101268">
        <ele>4.347081</ele>
        <time>2025-04-13T07:58:58.000Z</time>
      </trkpt>
      <trkpt lat="26.154798" lon="-80.101263">
        <ele>4.352257</ele>
        <time>2025-04-13T07:59:06.000Z</time>
      </trkpt>
      <trkpt lat="26.154588" lon="-80.101267">
        <ele>4.353727</ele>
        <time>2025-04-13T07:59:08.000Z</time>
      </trkpt>
      <trkpt lat="26.154272" lon="-80.101246">
        <ele>4.130639</ele>
        <time>2025-04-13T07:59:12.000Z</time>
      </trkpt>
      <trkpt lat="26.154112" lon="-80.101237">
        <ele>4.023365</ele>
        <time>2025-04-13T07:59:14.000Z</time>
      </trkpt>
      <trkpt lat="26.153673" lon="-80.101181">
        <ele>3.689332</ele>
        <time>2025-04-13T07:59:19.000Z</time>
      </trkpt>
      <trkpt lat="26.153148" lon="-80.101124">
        <ele>3.308945</ele>
        <time>2025-04-13T07:59:25.000Z</time>
      </trkpt>
      <trkpt lat="26.153" lon="-80.101114">
        <ele>3.198492</ele>
        <time>2025-04-13T07:59:27.000Z</time>
      </trkpt>
      <trkpt lat="26.152114" lon="-80.100953">
        <ele>2.307998</ele>
        <time>2025-04-13T07:59:37.000Z</time>
      </trkpt>
      <trkpt lat="26.151828" lon="-80.100944">
        <ele>2.002465</ele>
        <time>2025-04-13T07:59:40.000Z</time>
      </trkpt>
      <trkpt lat="26.151317" lon="-80.100994">
        <ele>1.456376</ele>
        <time>2025-04-13T07:59:46.000Z</time>
      </trkpt>
      <trkpt lat="26.15057" lon="-80.101087">
        <ele>1.041992</ele>
        <time>2025-04-13T07:59:54.000Z</time>
      </trkpt>
      <trkpt lat="26.150518" lon="-80.101093">
        <ele>1.034621</ele>
        <time>2025-04-13T07:59:55.000Z</time>
      </trkpt>
      <trkpt lat="26.149731" lon="-80.10116">
        <ele>0.917512</ele>
        <time>2025-04-13T08:00:04.000Z</time>
      </trkpt>
      <trkpt lat="26.149723" lon="-80.101177">
        <ele>0.914061</ele>
        <time>2025-04-13T08:00:04.000Z</time>
      </trkpt>
      <trkpt lat="26.149477" lon="-80.101216">
        <ele>0.876634</ele>
        <time>2025-04-13T08:00:07.000Z</time>
      </trkpt>
      <trkpt lat="26.148932" lon="-80.101345">
        <ele>0.745388</ele>
        <time>2025-04-13T08:00:13.000Z</time>
      </trkpt>
      <trkpt lat="26.148142" lon="-80.101458">
        <ele>0.489635</ele>
        <time>2025-04-13T08:00:22.000Z</time>
      </trkpt>
      <trkpt lat="26.147844" lon="-80.101507">
        <ele>0.393954</ele>
        <time>2025-04-13T08:00:25.000Z</time>
      </trkpt>
      <trkpt lat="26.147403" lon="-80.101578">
        <ele>0.261675</ele>
        <time>2025-04-13T08:00:30.000Z</time>
      </trkpt>
      <trkpt lat="26.147358" lon="-80.101593">
        <ele>0.275675</ele>
        <time>2025-04-13T08:00:31.000Z</time>
      </trkpt>
      <trkpt lat="26.146566" lon="-80.101715">
        <ele>0.496233</ele>
        <time>2025-04-13T08:00:40.000Z</time>
      </trkpt>
      <trkpt lat="26.146263" lon="-80.101772">
        <ele>0.583638</ele>
        <time>2025-04-13T08:00:43.000Z</time>
      </trkpt>
      <trkpt lat="26.145767" lon="-80.10186">
        <ele>0.719896</ele>
        <time>2025-04-13T08:00:49.000Z</time>
      </trkpt>
      <trkpt lat="26.145262" lon="-80.101963">
        <ele>0.986563</ele>
        <time>2025-04-13T08:00:55.000Z</time>
      </trkpt>
      <trkpt lat="26.144977" lon="-80.102065">
        <ele>1.160797</ele>
        <time>2025-04-13T08:00:58.000Z</time>
      </trkpt>
      <trkpt lat="26.144955" lon="-80.102065">
        <ele>1.180045</ele>
        <time>2025-04-13T08:00:58.000Z</time>
      </trkpt>
      <trkpt lat="26.144638" lon="-80.102167">
        <ele>1.372521</ele>
        <time>2025-04-13T08:01:02.000Z</time>
      </trkpt>
      <trkpt lat="26.144608" lon="-80.102168">
        <ele>1.389049</ele>
        <time>2025-04-13T08:01:02.000Z</time>
      </trkpt>
      <trkpt lat="26.144414" lon="-80.102264">
        <ele>1.524543</ele>
        <time>2025-04-13T08:01:04.000Z</time>
      </trkpt>
      <trkpt lat="26.144214" lon="-80.102316">
        <ele>1.642152</ele>
        <time>2025-04-13T08:01:06.000Z</time>
      </trkpt>
      <trkpt lat="26.142888" lon="-80.1025">
        <ele>1.675739</ele>
        <time>2025-04-13T08:01:21.000Z</time>
      </trkpt>
      <trkpt lat="26.140602" lon="-80.102734">
        <ele>1.102311</ele>
        <time>2025-04-13T08:01:47.000Z</time>
      </trkpt>
      <trkpt lat="26.13986" lon="-80.102811">
        <ele>1.121898</ele>
        <time>2025-04-13T08:01:55.000Z</time>
      </trkpt>
      <trkpt lat="26.13895" lon="-80.102928">
        <ele>1.320229</ele>
        <time>2025-04-13T08:02:05.000Z</time>
      </trkpt>
      <trkpt lat="26.138207" lon="-80.103034">
        <ele>1.387868</ele>
        <time>2025-04-13T08:02:13.000Z</time>
      </trkpt>
      <trkpt lat="26.138107" lon="-80.102987">
        <ele>1.380565</ele>
        <time>2025-04-13T08:02:14.000Z</time>
      </trkpt>
      <trkpt lat="26.137984" lon="-80.10299">
        <ele>1.371881</ele>
        <time>2025-04-13T08:02:15.000Z</time>
      </trkpt>
      <trkpt lat="26.1378" lon="-80.103021">
        <ele>1.359098</ele>
        <time>2025-04-13T08:02:17.000Z</time>
      </trkpt>
      <trkpt lat="26.137398" lon="-80.103065">
        <ele>1.330572</ele>
        <time>2025-04-13T08:02:21.000Z</time>
      </trkpt>
      <trkpt lat="26.137315" lon="-80.103075">
        <ele>1.324589</ele>
        <time>2025-04-13T08:02:22.000Z</time>
      </trkpt>
      <trkpt lat="26.13697" lon="-80.103105">
        <ele>1.300789</ele>
        <time>2025-04-13T08:02:26.000Z</time>
      </trkpt>
      <trkpt lat="26.136875" lon="-80.103121">
        <ele>1.294141</ele>
        <time>2025-04-13T08:02:27.000Z</time>
      </trkpt>
      <trkpt lat="26.136782" lon="-80.103119">
        <ele>1.288604</ele>
        <time>2025-04-13T08:02:28.000Z</time>
      </trkpt>
      <trkpt lat="26.136441" lon="-80.103127">
        <ele>1.328558</ele>
        <time>2025-04-13T08:02:32.000Z</time>
      </trkpt>
      <trkpt lat="26.136178" lon="-80.103196">
        <ele>1.366308</ele>
        <time>2025-04-13T08:02:35.000Z</time>
      </trkpt>
      <trkpt lat="26.133411" lon="-80.103331">
        <ele>1.552252</ele>
        <time>2025-04-13T08:03:06.000Z</time>
      </trkpt>
      <trkpt lat="26.133353" lon="-80.103342">
        <ele>1.552856</ele>
        <time>2025-04-13T08:03:07.000Z</time>
      </trkpt>
      <trkpt lat="26.13326" lon="-80.103336">
        <ele>1.554136</ele>
        <time>2025-04-13T08:03:08.000Z</time>
      </trkpt>
      <trkpt lat="26.133216" lon="-80.103355">
        <ele>1.554795</ele>
        <time>2025-04-13T08:03:09.000Z</time>
      </trkpt>
      <trkpt lat="26.132612" lon="-80.103365">
        <ele>1.420481</ele>
        <time>2025-04-13T08:03:16.000Z</time>
      </trkpt>
      <trkpt lat="26.132508" lon="-80.103361">
        <ele>1.39775</ele>
        <time>2025-04-13T08:03:17.000Z</time>
      </trkpt>
      <trkpt lat="26.132324" lon="-80.103382">
        <ele>1.352516</ele>
        <time>2025-04-13T08:03:19.000Z</time>
      </trkpt>
      <trkpt lat="26.131957" lon="-80.103384">
        <ele>1.267295</ele>
        <time>2025-04-13T08:03:23.000Z</time>
      </trkpt>
      <trkpt lat="26.131896" lon="-80.103378">
        <ele>1.252463</ele>
        <time>2025-04-13T08:03:24.000Z</time>
      </trkpt>
      <trkpt lat="26.131272" lon="-80.103393">
        <ele>1.131519</ele>
        <time>2025-04-13T08:03:31.000Z</time>
      </trkpt>
      <trkpt lat="26.131229" lon="-80.103392">
        <ele>1.135075</ele>
        <time>2025-04-13T08:03:31.000Z</time>
      </trkpt>
      <trkpt lat="26.131157" lon="-80.103409">
        <ele>1.140419</ele>
        <time>2025-04-13T08:03:32.000Z</time>
      </trkpt>
      <trkpt lat="26.131098" lon="-80.103408">
        <ele>1.143831</ele>
        <time>2025-04-13T08:03:33.000Z</time>
      </trkpt>
      <trkpt lat="26.130486" lon="-80.103429">
        <ele>1.186786</ele>
        <time>2025-04-13T08:03:40.000Z</time>
      </trkpt>
      <trkpt lat="26.130411" lon="-80.103421">
        <ele>1.192288</ele>
        <time>2025-04-13T08:03:41.000Z</time>
      </trkpt>
      <trkpt lat="26.129846" lon="-80.103442">
        <ele>1.231486</ele>
        <time>2025-04-13T08:03:47.000Z</time>
      </trkpt>
      <trkpt lat="26.129779" lon="-80.10343">
        <ele>1.235386</ele>
        <time>2025-04-13T08:03:48.000Z</time>
      </trkpt>
      <trkpt lat="26.129125" lon="-80.103463">
        <ele>1.38946</ele>
        <time>2025-04-13T08:03:55.000Z</time>
      </trkpt>
      <trkpt lat="26.129017" lon="-80.103477">
        <ele>1.416962</ele>
        <time>2025-04-13T08:03:56.000Z</time>
      </trkpt>
      <trkpt lat="26.12802" lon="-80.103524">
        <ele>1.723749</ele>
        <time>2025-04-13T08:04:07.000Z</time>
      </trkpt>
      <trkpt lat="26.127511" lon="-80.103553">
        <ele>1.880882</ele>
        <time>2025-04-13T08:04:13.000Z</time>
      </trkpt>
      <trkpt lat="26.127264" lon="-80.103568">
        <ele>1.954565</ele>
        <time>2025-04-13T08:04:16.000Z</time>
      </trkpt>
      <trkpt lat="26.126589" lon="-80.103621">
        <ele>2.165678</ele>
        <time>2025-04-13T08:04:24.000Z</time>
      </trkpt>
      <trkpt lat="26.125963" lon="-80.10364">
        <ele>2.339453</ele>
        <time>2025-04-13T08:04:31.000Z</time>
      </trkpt>
      <trkpt lat="26.125955" lon="-80.103638">
        <ele>2.337732</ele>
        <time>2025-04-13T08:04:31.000Z</time>
      </trkpt>
      <trkpt lat="26.12595" lon="-80.103628">
        <ele>2.337735</ele>
        <time>2025-04-13T08:04:31.000Z</time>
      </trkpt>
      <trkpt lat="26.125441" lon="-80.103688">
        <ele>2.056122</ele>
        <time>2025-04-13T08:04:37.000Z</time>
      </trkpt>
      <trkpt lat="26.124925" lon="-80.103722">
        <ele>1.775028</ele>
        <time>2025-04-13T08:04:43.000Z</time>
      </trkpt>
      <trkpt lat="26.124925" lon="-80.103735">
        <ele>1.775034</ele>
        <time>2025-04-13T08:04:43.000Z</time>
      </trkpt>
      <trkpt lat="26.124385" lon="-80.103829">
        <ele>1.467024</ele>
        <time>2025-04-13T08:04:49.000Z</time>
      </trkpt>
      <trkpt lat="26.123827" lon="-80.103924">
        <ele>1.278365</ele>
        <time>2025-04-13T08:04:55.000Z</time>
      </trkpt>
      <trkpt lat="26.123826" lon="-80.10393">
        <ele>1.278356</ele>
        <time>2025-04-13T08:04:55.000Z</time>
      </trkpt>
      <trkpt lat="26.123202" lon="-80.104018">
        <ele>1.133543</ele>
        <time>2025-04-13T08:05:02.000Z</time>
      </trkpt>
      <trkpt lat="26.12257" lon="-80.104116">
        <ele>0.988516</ele>
        <time>2025-04-13T08:05:09.000Z</time>
      </trkpt>
      <trkpt lat="26.122579" lon="-80.104117">
        <ele>0.988508</ele>
        <time>2025-04-13T08:05:09.000Z</time>
      </trkpt>
      <trkpt lat="26.122574" lon="-80.104127">
        <ele>0.988512</ele>
        <time>2025-04-13T08:05:09.000Z</time>
      </trkpt>
      <trkpt lat="26.122005" lon="-80.104197">
        <ele>0.991484</ele>
        <time>2025-04-13T08:05:15.000Z</time>
      </trkpt>
      <trkpt lat="26.121455" lon="-80.104265">
        <ele>1.046068</ele>
        <time>2025-04-13T08:05:21.000Z</time>
      </trkpt>
      <trkpt lat="26.121445" lon="-80.104253">
        <ele>1.046079</ele>
        <time>2025-04-13T08:05:21.000Z</time>
      </trkpt>
      <trkpt lat="26.120958" lon="-80.104342">
        <ele>1.094521</ele>
        <time>2025-04-13T08:05:26.000Z</time>
      </trkpt>
      <trkpt lat="26.120443" lon="-80.104419">
        <ele>1.136632</ele>
        <time>2025-04-13T08:05:32.000Z</time>
      </trkpt>
      <trkpt lat="26.120101" lon="-80.104477">
        <ele>1.157967</ele>
        <time>2025-04-13T08:05:36.000Z</time>
      </trkpt>
      <trkpt lat="26.120011" lon="-80.104488">
        <ele>1.16345</ele>
        <time>2025-04-13T08:05:37.000Z</time>
      </trkpt>
      <trkpt lat="26.120008" lon="-80.104475">
        <ele>1.163563</ele>
        <time>2025-04-13T08:05:37.000Z</time>
      </trkpt>
      <trkpt lat="26.120006" lon="-80.10449">
        <ele>1.16363</ele>
        <time>2025-04-13T08:05:37.000Z</time>
      </trkpt>
      <trkpt lat="26.120008" lon="-80.104489">
        <ele>1.163631</ele>
        <time>2025-04-13T08:05:37.000Z</time>
      </trkpt>
      <trkpt lat="26.119275" lon="-80.104555">
        <ele>1.208006</ele>
        <time>2025-04-13T08:05:45.000Z</time>
      </trkpt>
      <trkpt lat="26.119404" lon="-80.104552">
        <ele>1.215538</ele>
        <time>2025-04-13T08:05:46.000Z</time>
      </trkpt>
      <trkpt lat="26.120108" lon="-80.104471">
        <ele>1.174445</ele>
        <time>2025-04-13T08:05:54.000Z</time>
      </trkpt>
      <trkpt lat="26.120932" lon="-80.104332">
        <ele>1.042527</ele>
        <time>2025-04-13T08:06:03.000Z</time>
      </trkpt>
      <trkpt lat="26.121438" lon="-80.104266">
        <ele>0.962977</ele>
        <time>2025-04-13T08:06:09.000Z</time>
      </trkpt>
      <trkpt lat="26.121746" lon="-80.104225">
        <ele>0.960717</ele>
        <time>2025-04-13T08:06:12.000Z</time>
      </trkpt>
      <trkpt lat="26.122562" lon="-80.104126">
        <ele>0.980755</ele>
        <time>2025-04-13T08:06:21.000Z</time>
      </trkpt>
      <trkpt lat="26.122571" lon="-80.104129">
        <ele>0.981133</ele>
        <time>2025-04-13T08:06:21.000Z</time>
      </trkpt>
      <trkpt lat="26.12341" lon="-80.103996">
        <ele>1.014279</ele>
        <time>2025-04-13T08:06:30.000Z</time>
      </trkpt>
      <trkpt lat="26.123606" lon="-80.103967">
        <ele>1.037352</ele>
        <time>2025-04-13T08:06:32.000Z</time>
      </trkpt>
      <trkpt lat="26.123832" lon="-80.103935">
        <ele>1.064952</ele>
        <time>2025-04-13T08:06:35.000Z</time>
      </trkpt>
      <trkpt lat="26.12419" lon="-80.103871">
        <ele>1.109361</ele>
        <time>2025-04-13T08:06:39.000Z</time>
      </trkpt>
      <trkpt lat="26.12441" lon="-80.103838">
        <ele>1.135415</ele>
        <time>2025-04-13T08:06:41.000Z</time>
      </trkpt>
      <trkpt lat="26.125235" lon="-80.10366">
        <ele>1.245628</ele>
        <time>2025-04-13T08:06:50.000Z</time>
      </trkpt>
      <trkpt lat="26.12588" lon="-80.103551">
        <ele>1.35803</ele>
        <time>2025-04-13T08:06:57.000Z</time>
      </trkpt>
      <trkpt lat="26.12699" lon="-80.103499">
        <ele>1.471881</ele>
        <time>2025-04-13T08:07:09.000Z</time>
      </trkpt>
      <trkpt lat="26.127279" lon="-80.103473">
        <ele>1.361214</ele>
        <time>2025-04-13T08:07:12.000Z</time>
      </trkpt>
      <trkpt lat="26.12801" lon="-80.10343">
        <ele>1.074137</ele>
        <time>2025-04-13T08:07:20.000Z</time>
      </trkpt>
      <trkpt lat="26.128648" lon="-80.103383">
        <ele>0.831825</ele>
        <time>2025-04-13T08:07:27.000Z</time>
      </trkpt>
      <trkpt lat="26.129069" lon="-80.103358">
        <ele>0.772726</ele>
        <time>2025-04-13T08:07:32.000Z</time>
      </trkpt>
      <trkpt lat="26.129843" lon="-80.103338">
        <ele>0.664241</ele>
        <time>2025-04-13T08:07:41.000Z</time>
      </trkpt>
      <trkpt lat="26.130395" lon="-80.103308">
        <ele>0.584663</ele>
        <time>2025-04-13T08:07:47.000Z</time>
      </trkpt>
      <trkpt lat="26.130706" lon="-80.10332">
        <ele>0.594446</ele>
        <time>2025-04-13T08:07:50.000Z</time>
      </trkpt>
      <trkpt lat="26.131092" lon="-80.103306">
        <ele>0.616349</ele>
        <time>2025-04-13T08:07:54.000Z</time>
      </trkpt>
      <trkpt lat="26.131195" lon="-80.103301">
        <ele>0.621765</ele>
        <time>2025-04-13T08:07:55.000Z</time>
      </trkpt>
      <trkpt lat="26.131284" lon="-80.103287">
        <ele>0.626449</ele>
        <time>2025-04-13T08:07:56.000Z</time>
      </trkpt>
      <trkpt lat="26.131967" lon="-80.103284">
        <ele>0.665738</ele>
        <time>2025-04-13T08:08:04.000Z</time>
      </trkpt>
      <trkpt lat="26.132514" lon="-80.103261">
        <ele>0.739064</ele>
        <time>2025-04-13T08:08:10.000Z</time>
      </trkpt>
      <trkpt lat="26.132882" lon="-80.103245">
        <ele>0.817935</ele>
        <time>2025-04-13T08:08:14.000Z</time>
      </trkpt>
      <trkpt lat="26.133221" lon="-80.10324">
        <ele>0.891017</ele>
        <time>2025-04-13T08:08:18.000Z</time>
      </trkpt>
      <trkpt lat="26.133311" lon="-80.10323">
        <ele>0.912144</ele>
        <time>2025-04-13T08:08:19.000Z</time>
      </trkpt>
      <trkpt lat="26.133407" lon="-80.103234">
        <ele>0.930904</ele>
        <time>2025-04-13T08:08:20.000Z</time>
      </trkpt>
      <trkpt lat="26.136168" lon="-80.10309">
        <ele>1.028312</ele>
        <time>2025-04-13T08:08:51.000Z</time>
      </trkpt>
      <trkpt lat="26.136449" lon="-80.103129">
        <ele>1.039567</ele>
        <time>2025-04-13T08:08:54.000Z</time>
      </trkpt>
      <trkpt lat="26.136787" lon="-80.10312">
        <ele>1.053099</ele>
        <time>2025-04-13T08:08:58.000Z</time>
      </trkpt>
      <trkpt lat="26.136871" lon="-80.103106">
        <ele>1.056275</ele>
        <time>2025-04-13T08:08:59.000Z</time>
      </trkpt>
      <trkpt lat="26.136972" lon="-80.103098">
        <ele>1.060078</ele>
        <time>2025-04-13T08:09:00.000Z</time>
      </trkpt>
      <trkpt lat="26.137309" lon="-80.103076">
        <ele>1.073675</ele>
        <time>2025-04-13T08:09:04.000Z</time>
      </trkpt>
      <trkpt lat="26.137402" lon="-80.103067">
        <ele>1.077085</ele>
        <time>2025-04-13T08:09:05.000Z</time>
      </trkpt>
      <trkpt lat="26.137796" lon="-80.103015">
        <ele>1.066366</ele>
        <time>2025-04-13T08:09:09.000Z</time>
      </trkpt>
      <trkpt lat="26.13799" lon="-80.102995">
        <ele>1.045864</ele>
        <time>2025-04-13T08:09:11.000Z</time>
      </trkpt>
      <trkpt lat="26.138113" lon="-80.102982">
        <ele>1.031958</ele>
        <time>2025-04-13T08:09:12.000Z</time>
      </trkpt>
      <trkpt lat="26.138213" lon="-80.102908">
        <ele>1.019522</ele>
        <time>2025-04-13T08:09:13.000Z</time>
      </trkpt>
      <trkpt lat="26.138963" lon="-80.102834">
        <ele>0.936572</ele>
        <time>2025-04-13T08:09:21.000Z</time>
      </trkpt>
      <trkpt lat="26.14019" lon="-80.102702">
        <ele>0.893388</ele>
        <time>2025-04-13T08:09:35.000Z</time>
      </trkpt>
      <trkpt lat="26.140587" lon="-80.102638">
        <ele>0.89652</ele>
        <time>2025-04-13T08:09:39.000Z</time>
      </trkpt>
      <trkpt lat="26.141253" lon="-80.102561">
        <ele>0.920377</ele>
        <time>2025-04-13T08:09:46.000Z</time>
      </trkpt>
      <trkpt lat="26.142063" lon="-80.102523">
        <ele>1.16015</ele>
        <time>2025-04-13T08:09:55.000Z</time>
      </trkpt>
      <trkpt lat="26.142889" lon="-80.102425">
        <ele>1.402208</ele>
        <time>2025-04-13T08:10:04.000Z</time>
      </trkpt>
      <trkpt lat="26.143974" lon="-80.102268">
        <ele>1.385758</ele>
        <time>2025-04-13T08:10:16.000Z</time>
      </trkpt>
      <trkpt lat="26.144615" lon="-80.102174">
        <ele>1.356872</ele>
        <time>2025-04-13T08:10:23.000Z</time>
      </trkpt>
      <trkpt lat="26.14465" lon="-80.102159">
        <ele>1.355635</ele>
        <time>2025-04-13T08:10:23.000Z</time>
      </trkpt>
      <trkpt lat="26.14496" lon="-80.102062">
        <ele>1.221202</ele>
        <time>2025-04-13T08:10:27.000Z</time>
      </trkpt>
      <trkpt lat="26.144985" lon="-80.102054">
        <ele>1.200813</ele>
        <time>2025-04-13T08:10:27.000Z</time>
      </trkpt>
      <trkpt lat="26.145268" lon="-80.101966">
        <ele>1.01632</ele>
        <time>2025-04-13T08:10:30.000Z</time>
      </trkpt>
      <trkpt lat="26.145777" lon="-80.101849">
        <ele>0.692643</ele>
        <time>2025-04-13T08:10:36.000Z</time>
      </trkpt>
      <trkpt lat="26.146246" lon="-80.101772">
        <ele>0.38228</ele>
        <time>2025-04-13T08:10:41.000Z</time>
      </trkpt>
      <trkpt lat="26.146569" lon="-80.101731">
        <ele>0.225071</ele>
        <time>2025-04-13T08:10:45.000Z</time>
      </trkpt>
      <trkpt lat="26.147348" lon="-80.101592">
        <ele>0.398246</ele>
        <time>2025-04-13T08:10:54.000Z</time>
      </trkpt>
      <trkpt lat="26.147404" lon="-80.101588">
        <ele>0.409241</ele>
        <time>2025-04-13T08:10:55.000Z</time>
      </trkpt>
      <trkpt lat="26.147848" lon="-80.101517">
        <ele>0.508055</ele>
        <time>2025-04-13T08:11:00.000Z</time>
      </trkpt>
      <trkpt lat="26.148142" lon="-80.101474">
        <ele>0.572535</ele>
        <time>2025-04-13T08:11:03.000Z</time>
      </trkpt>
      <trkpt lat="26.148925" lon="-80.101331">
        <ele>0.703876</ele>
        <time>2025-04-13T08:11:12.000Z</time>
      </trkpt>
      <trkpt lat="26.149476" lon="-80.101216">
        <ele>0.788497</ele>
        <time>2025-04-13T08:11:18.000Z</time>
      </trkpt>
      <trkpt lat="26.149708" lon="-80.101179">
        <ele>0.826896</ele>
        <time>2025-04-13T08:11:21.000Z</time>
      </trkpt>
      <trkpt lat="26.14974" lon="-80.101171">
        <ele>0.830457</ele>
        <time>2025-04-13T08:11:21.000Z</time>
      </trkpt>
      <trkpt lat="26.150527" lon="-80.101098">
        <ele>1.126743</ele>
        <time>2025-04-13T08:11:30.000Z</time>
      </trkpt>
      <trkpt lat="26.150572" lon="-80.101079">
        <ele>1.153722</ele>
        <time>2025-04-13T08:11:31.000Z</time>
      </trkpt>
      <trkpt lat="26.15132" lon="-80.100997">
        <ele>1.56506</ele>
        <time>2025-04-13T08:11:39.000Z</time>
      </trkpt>
      <trkpt lat="26.151834" lon="-80.100945">
        <ele>1.845153</ele>
        <time>2025-04-13T08:11:45.000Z</time>
      </trkpt>
      <trkpt lat="26.152118" lon="-80.100968">
        <ele>2.141356</ele>
        <time>2025-04-13T08:11:48.000Z</time>
      </trkpt>
      <trkpt lat="26.153008" lon="-80.101122">
        <ele>3.148288</ele>
        <time>2025-04-13T08:11:58.000Z</time>
      </trkpt>
      <trkpt lat="26.153162" lon="-80.101123">
        <ele>3.314127</ele>
        <time>2025-04-13T08:12:00.000Z</time>
      </trkpt>
      <trkpt lat="26.153429" lon="-80.101087">
        <ele>3.623492</ele>
        <time>2025-04-13T08:12:03.000Z</time>
      </trkpt>
      <trkpt lat="26.153775" lon="-80.10108">
        <ele>3.905372</ele>
        <time>2025-04-13T08:12:07.000Z</time>
      </trkpt>
      <trkpt lat="26.154128" lon="-80.101114">
        <ele>4.035415</ele>
        <time>2025-04-13T08:12:11.000Z</time>
      </trkpt>
      <trkpt lat="26.15427" lon="-80.101134">
        <ele>4.087931</ele>
        <time>2025-04-13T08:12:13.000Z</time>
      </trkpt>
      <trkpt lat="26.155179" lon="-80.10114">
        <ele>4.409413</ele>
        <time>2025-04-13T08:12:23.000Z</time>
      </trkpt>
      <trkpt lat="26.155526" lon="-80.10114">
        <ele>4.499154</ele>
        <time>2025-04-13T08:12:27.000Z</time>
      </trkpt>
      <trkpt lat="26.156398" lon="-80.101147">
        <ele>4.404698</ele>
        <time>2025-04-13T08:12:37.000Z</time>
      </trkpt>
      <trkpt lat="26.15658" lon="-80.101146">
        <ele>4.384101</ele>
        <time>2025-04-13T08:12:39.000Z</time>
      </trkpt>
      <trkpt lat="26.157137" lon="-80.101143">
        <ele>4.323938</ele>
        <time>2025-04-13T08:12:45.000Z</time>
      </trkpt>
      <trkpt lat="26.157285" lon="-80.101137">
        <ele>4.300973</ele>
        <time>2025-04-13T08:12:47.000Z</time>
      </trkpt>
      <trkpt lat="26.157781" lon="-80.101149">
        <ele>4.155274</ele>
        <time>2025-04-13T08:12:53.000Z</time>
      </trkpt>
      <trkpt lat="26.157923" lon="-80.101136">
        <ele>4.108402</ele>
        <time>2025-04-13T08:12:55.000Z</time>
      </trkpt>
      <trkpt lat="26.159633" lon="-80.101138">
        <ele>3.711001</ele>
        <time>2025-04-13T08:13:14.000Z</time>
      </trkpt>
      <trkpt lat="26.160303" lon="-80.101122">
        <ele>3.636433</ele>
        <time>2025-04-13T08:13:21.000Z</time>
      </trkpt>
      <trkpt lat="26.16065" lon="-80.101124">
        <ele>3.598132</ele>
        <time>2025-04-13T08:13:25.000Z</time>
      </trkpt>
      <trkpt lat="26.161147" lon="-80.101134">
        <ele>3.514671</ele>
        <time>2025-04-13T08:13:31.000Z</time>
      </trkpt>
      <trkpt lat="26.161548" lon="-80.101074">
        <ele>3.435035</ele>
        <time>2025-04-13T08:13:35.000Z</time>
      </trkpt>
      <trkpt lat="26.161691" lon="-80.101064">
        <ele>3.404821</ele>
        <time>2025-04-13T08:13:37.000Z</time>
      </trkpt>
      <trkpt lat="26.162885" lon="-80.100908">
        <ele>3.199207</ele>
        <time>2025-04-13T08:13:50.000Z</time>
      </trkpt>
      <trkpt lat="26.163524" lon="-80.100866">
        <ele>3.151643</ele>
        <time>2025-04-13T08:13:57.000Z</time>
      </trkpt>
      <trkpt lat="26.163516" lon="-80.100878">
        <ele>3.151557</ele>
        <time>2025-04-13T08:13:57.000Z</time>
      </trkpt>
      <trkpt lat="26.16352" lon="-80.100864">
        <ele>3.151412</ele>
        <time>2025-04-13T08:13:57.000Z</time>
      </trkpt>
      <trkpt lat="26.16353" lon="-80.100869">
        <ele>3.151258</ele>
        <time>2025-04-13T08:13:57.000Z</time>
      </trkpt>
      <trkpt lat="26.163574" lon="-80.100867">
        <ele>3.147187</ele>
        <time>2025-04-13T08:13:57.000Z</time>
      </trkpt>
      <trkpt lat="26.16358" lon="-80.10099">
        <ele>3.138936</ele>
        <time>2025-04-13T08:13:58.000Z</time>
      </trkpt>
      <trkpt lat="26.163329" lon="-80.101016">
        <ele>3.119336</ele>
        <time>2025-04-13T08:14:01.000Z</time>
      </trkpt>
      <trkpt lat="26.162899" lon="-80.101043">
        <ele>3.087647</ele>
        <time>2025-04-13T08:14:06.000Z</time>
      </trkpt>
      <trkpt lat="26.161884" lon="-80.101173">
        <ele>3.346945</ele>
        <time>2025-04-13T08:14:17.000Z</time>
      </trkpt>
      <trkpt lat="26.161652" lon="-80.101201">
        <ele>3.409142</ele>
        <time>2025-04-13T08:14:20.000Z</time>
      </trkpt>
      <trkpt lat="26.161024" lon="-80.101255">
        <ele>3.566093</ele>
        <time>2025-04-13T08:14:27.000Z</time>
      </trkpt>
      <trkpt lat="26.160655" lon="-80.101247">
        <ele>3.587474</ele>
        <time>2025-04-13T08:14:31.000Z</time>
      </trkpt>
      <trkpt lat="26.160033" lon="-80.101264">
        <ele>3.622093</ele>
        <time>2025-04-13T08:14:38.000Z</time>
      </trkpt>
      <trkpt lat="26.159954" lon="-80.101251">
        <ele>3.625595</ele>
        <time>2025-04-13T08:14:39.000Z</time>
      </trkpt>
      <trkpt lat="26.159635" lon="-80.101268">
        <ele>3.644131</ele>
        <time>2025-04-13T08:14:43.000Z</time>
      </trkpt>
      <trkpt lat="26.15885" lon="-80.10127">
        <ele>3.722452</ele>
        <time>2025-04-13T08:14:52.000Z</time>
      </trkpt>
      <trkpt lat="26.158463" lon="-80.101268">
        <ele>3.775528</ele>
        <time>2025-04-13T08:14:56.000Z</time>
      </trkpt>
      <trkpt lat="26.157873" lon="-80.101261">
        <ele>3.858759</ele>
        <time>2025-04-13T08:15:03.000Z</time>
      </trkpt>
      <trkpt lat="26.157773" lon="-80.101274">
        <ele>3.873017</ele>
        <time>2025-04-13T08:15:04.000Z</time>
      </trkpt>
      <trkpt lat="26.157368" lon="-80.101268">
        <ele>3.948694</ele>
        <time>2025-04-13T08:15:09.000Z</time>
      </trkpt>
      <trkpt lat="26.156976" lon="-80.101261">
        <ele>4.073402</ele>
        <time>2025-04-13T08:15:13.000Z</time>
      </trkpt>
      <trkpt lat="26.156759" lon="-80.101272">
        <ele>4.139923</ele>
        <time>2025-04-13T08:15:15.000Z</time>
      </trkpt>
      <trkpt lat="26.156698" lon="-80.101273">
        <ele>4.163721</ele>
        <time>2025-04-13T08:15:16.000Z</time>
      </trkpt>
      <trkpt lat="26.156495" lon="-80.10126">
        <ele>4.228968</ele>
        <time>2025-04-13T08:15:18.000Z</time>
      </trkpt>
      <trkpt lat="26.156327" lon="-80.101267">
        <ele>4.279091</ele>
        <time>2025-04-13T08:15:20.000Z</time>
      </trkpt>
      <trkpt lat="26.155932" lon="-80.101263">
        <ele>4.406056</ele>
        <time>2025-04-13T08:15:24.000Z</time>
      </trkpt>
      <trkpt lat="26.155519" lon="-80.101263">
        <ele>4.4557</ele>
        <time>2025-04-13T08:15:29.000Z</time>
      </trkpt>
      <trkpt lat="26.154804" lon="-80.101273">
        <ele>4.265519</ele>
        <time>2025-04-13T08:15:37.000Z</time>
      </trkpt>
      <trkpt lat="26.154595" lon="-80.101275">
        <ele>4.211786</ele>
        <time>2025-04-13T08:15:39.000Z</time>
      </trkpt>
      <trkpt lat="26.154268" lon="-80.101241">
        <ele>4.123726</ele>
        <time>2025-04-13T08:15:43.000Z</time>
      </trkpt>
      <trkpt lat="26.154126" lon="-80.101228">
        <ele>4.085512</ele>
        <time>2025-04-13T08:15:45.000Z</time>
      </trkpt>
      <trkpt lat="26.153669" lon="-80.101182">
        <ele>3.80738</ele>
        <time>2025-04-13T08:15:50.000Z</time>
      </trkpt>
      <trkpt lat="26.153158" lon="-80.10112">
        <ele>3.268337</ele>
        <time>2025-04-13T08:15:56.000Z</time>
      </trkpt>
      <trkpt lat="26.153015" lon="-80.101108">
        <ele>3.111825</ele>
        <time>2025-04-13T08:15:58.000Z</time>
      </trkpt>
      <trkpt lat="26.152115" lon="-80.100963">
        <ele>2.16161</ele>
        <time>2025-04-13T08:16:08.000Z</time>
      </trkpt>
      <trkpt lat="26.151831" lon="-80.10094">
        <ele>1.955798</ele>
        <time>2025-04-13T08:16:11.000Z</time>
      </trkpt>
      <trkpt lat="26.151309" lon="-80.101012">
        <ele>1.603862</ele>
        <time>2025-04-13T08:16:17.000Z</time>
      </trkpt>
      <trkpt lat="26.150569" lon="-80.101077">
        <ele>1.087027</ele>
        <time>2025-04-13T08:16:25.000Z</time>
      </trkpt>
      <trkpt lat="26.150527" lon="-80.101098">
        <ele>1.053132</ele>
        <time>2025-04-13T08:16:26.000Z</time>
      </trkpt>
      <trkpt lat="26.149731" lon="-80.101163">
        <ele>0.835786</ele>
        <time>2025-04-13T08:16:35.000Z</time>
      </trkpt>
      <trkpt lat="26.149726" lon="-80.101172">
        <ele>0.833182</ele>
        <time>2025-04-13T08:16:35.000Z</time>
      </trkpt>
      <trkpt lat="26.14948" lon="-80.101216">
        <ele>0.804905</ele>
        <time>2025-04-13T08:16:38.000Z</time>
      </trkpt>
      <trkpt lat="26.148926" lon="-80.101332">
        <ele>0.742567</ele>
        <time>2025-04-13T08:16:44.000Z</time>
      </trkpt>
      <trkpt lat="26.148146" lon="-80.101456">
        <ele>0.582943</ele>
        <time>2025-04-13T08:16:53.000Z</time>
      </trkpt>
      <trkpt lat="26.147852" lon="-80.101514">
        <ele>0.49428</ele>
        <time>2025-04-13T08:16:56.000Z</time>
      </trkpt>
      <trkpt lat="26.1474" lon="-80.101593">
        <ele>0.358378</ele>
        <time>2025-04-13T08:17:01.000Z</time>
      </trkpt>
      <trkpt lat="26.147349" lon="-80.101599">
        <ele>0.343248</ele>
        <time>2025-04-13T08:17:02.000Z</time>
      </trkpt>
      <trkpt lat="26.146572" lon="-80.101724">
        <ele>0.270325</ele>
        <time>2025-04-13T08:17:11.000Z</time>
      </trkpt>
      <trkpt lat="26.146255" lon="-80.101764">
        <ele>0.475763</ele>
        <time>2025-04-13T08:17:15.000Z</time>
      </trkpt>
      <trkpt lat="26.145761" lon="-80.101847">
        <ele>0.796013</ele>
        <time>2025-04-13T08:17:21.000Z</time>
      </trkpt>
      <trkpt lat="26.145265" lon="-80.101965">
        <ele>1.130007</ele>
        <time>2025-04-13T08:17:27.000Z</time>
      </trkpt>
      <trkpt lat="26.144978" lon="-80.102064">
        <ele>1.320382</ele>
        <time>2025-04-13T08:17:30.000Z</time>
      </trkpt>
      <trkpt lat="26.144954" lon="-80.102059">
        <ele>1.334788</ele>
        <time>2025-04-13T08:17:30.000Z</time>
      </trkpt>
      <trkpt lat="26.144636" lon="-80.102163">
        <ele>1.430162</ele>
        <time>2025-04-13T08:17:34.000Z</time>
      </trkpt>
      <trkpt lat="26.144619" lon="-80.102177">
        <ele>1.438347</ele>
        <time>2025-04-13T08:17:34.000Z</time>
      </trkpt>
      <trkpt lat="26.144404" lon="-80.102255">
        <ele>1.505489</ele>
        <time>2025-04-13T08:17:37.000Z</time>
      </trkpt>
      <trkpt lat="26.14421" lon="-80.102303">
        <ele>1.563766</ele>
        <time>2025-04-13T08:17:39.000Z</time>
      </trkpt>
      <trkpt lat="26.142889" lon="-80.102486">
        <ele>1.750998</ele>
        <time>2025-04-13T08:17:54.000Z</time>
      </trkpt>
      <trkpt lat="26.140597" lon="-80.102742">
        <ele>1.21874</ele>
        <time>2025-04-13T08:18:20.000Z</time>
      </trkpt>
      <trkpt lat="26.139855" lon="-80.102807">
        <ele>1.180129</ele>
        <time>2025-04-13T08:18:28.000Z</time>
      </trkpt>
      <trkpt lat="26.138952" lon="-80.102924">
        <ele>1.243109</ele>
        <time>2025-04-13T08:18:38.000Z</time>
      </trkpt>
      <trkpt lat="26.138218" lon="-80.103028">
        <ele>1.325075</ele>
        <time>2025-04-13T08:18:46.000Z</time>
      </trkpt>
      <trkpt lat="26.13812" lon="-80.102987">
        <ele>1.336655</ele>
        <time>2025-04-13T08:18:47.000Z</time>
      </trkpt>
      <trkpt lat="26.13799" lon="-80.103">
        <ele>1.350391</ele>
        <time>2025-04-13T08:18:48.000Z</time>
      </trkpt>
      <trkpt lat="26.137799" lon="-80.103016">
        <ele>1.36485</ele>
        <time>2025-04-13T08:18:50.000Z</time>
      </trkpt>
      <trkpt lat="26.137397" lon="-80.103062">
        <ele>1.363225</ele>
        <time>2025-04-13T08:18:54.000Z</time>
      </trkpt>
      <trkpt lat="26.137309" lon="-80.103067">
        <ele>1.362892</ele>
        <time>2025-04-13T08:18:55.000Z</time>
      </trkpt>
      <trkpt lat="26.136957" lon="-80.10311">
        <ele>1.36153</ele>
        <time>2025-04-13T08:18:59.000Z</time>
      </trkpt>
      <trkpt lat="26.136871" lon="-80.103121">
        <ele>1.361136</ele>
        <time>2025-04-13T08:19:00.000Z</time>
      </trkpt>
      <trkpt lat="26.136794" lon="-80.103122">
        <ele>1.36082</ele>
        <time>2025-04-13T08:19:01.000Z</time>
      </trkpt>
      <trkpt lat="26.136454" lon="-80.103144">
        <ele>1.359476</ele>
        <time>2025-04-13T08:19:05.000Z</time>
      </trkpt>
      <trkpt lat="26.136174" lon="-80.103191">
        <ele>1.358367</ele>
        <time>2025-04-13T08:19:08.000Z</time>
      </trkpt>
      <trkpt lat="26.133404" lon="-80.103344">
        <ele>1.479342</ele>
        <time>2025-04-13T08:19:39.000Z</time>
      </trkpt>
      <trkpt lat="26.133351" lon="-80.103343">
        <ele>1.472918</ele>
        <time>2025-04-13T08:19:40.000Z</time>
      </trkpt>
      <trkpt lat="26.133271" lon="-80.103345">
        <ele>1.459354</ele>
        <time>2025-04-13T08:19:41.000Z</time>
      </trkpt>
      <trkpt lat="26.133216" lon="-80.103337">
        <ele>1.452201</ele>
        <time>2025-04-13T08:19:42.000Z</time>
      </trkpt>
      <trkpt lat="26.132611" lon="-80.103358">
        <ele>1.363087</ele>
        <time>2025-04-13T08:19:49.000Z</time>
      </trkpt>
      <trkpt lat="26.132511" lon="-80.103372">
        <ele>1.349224</ele>
        <time>2025-04-13T08:19:50.000Z</time>
      </trkpt>
      <trkpt lat="26.132327" lon="-80.103368">
        <ele>1.32798</ele>
        <time>2025-04-13T08:19:52.000Z</time>
      </trkpt>
      <trkpt lat="26.131956" lon="-80.103373">
        <ele>1.290907</ele>
        <time>2025-04-13T08:19:56.000Z</time>
      </trkpt>
      <trkpt lat="26.131908" lon="-80.103374">
        <ele>1.284434</ele>
        <time>2025-04-13T08:19:57.000Z</time>
      </trkpt>
      <trkpt lat="26.131284" lon="-80.103403">
        <ele>1.219208</ele>
        <time>2025-04-13T08:20:04.000Z</time>
      </trkpt>
      <trkpt lat="26.131221" lon="-80.103401">
        <ele>1.213913</ele>
        <time>2025-04-13T08:20:05.000Z</time>
      </trkpt>
      <trkpt lat="26.131143" lon="-80.103403">
        <ele>1.205881</ele>
        <time>2025-04-13T08:20:06.000Z</time>
      </trkpt>
      <trkpt lat="26.131106" lon="-80.103412">
        <ele>1.200768</ele>
        <time>2025-04-13T08:20:06.000Z</time>
      </trkpt>
      <trkpt lat="26.13048" lon="-80.103426">
        <ele>1.176463</ele>
        <time>2025-04-13T08:20:13.000Z</time>
      </trkpt>
      <trkpt lat="26.130407" lon="-80.103421">
        <ele>1.184656</ele>
        <time>2025-04-13T08:20:14.000Z</time>
      </trkpt>
      <trkpt lat="26.129841" lon="-80.10343">
        <ele>1.243179</ele>
        <time>2025-04-13T08:20:20.000Z</time>
      </trkpt>
      <trkpt lat="26.129774" lon="-80.103439">
        <ele>1.248996</ele>
        <time>2025-04-13T08:20:21.000Z</time>
      </trkpt>
      <trkpt lat="26.129123" lon="-80.10346">
        <ele>1.318234</ele>
        <time>2025-04-13T08:20:28.000Z</time>
      </trkpt>
      <trkpt lat="26.129032" lon="-80.103474">
        <ele>1.327579</ele>
        <time>2025-04-13T08:20:29.000Z</time>
      </trkpt>
      <trkpt lat="26.128028" lon="-80.103523">
        <ele>1.750164</ele>
        <time>2025-04-13T08:20:40.000Z</time>
      </trkpt>
      <trkpt lat="26.127513" lon="-80.103551">
        <ele>1.99446</ele>
        <time>2025-04-13T08:20:46.000Z</time>
      </trkpt>
      <trkpt lat="26.127277" lon="-80.103583">
        <ele>2.108815</ele>
        <time>2025-04-13T08:20:49.000Z</time>
      </trkpt>
      <trkpt lat="26.126588" lon="-80.103608">
        <ele>2.135044</ele>
        <time>2025-04-13T08:20:57.000Z</time>
      </trkpt>
      <trkpt lat="26.125955" lon="-80.10364">
        <ele>2.056508</ele>
        <time>2025-04-13T08:21:04.000Z</time>
      </trkpt>
      <trkpt lat="26.125964" lon="-80.103646">
        <ele>2.056123</ele>
        <time>2025-04-13T08:21:04.000Z</time>
      </trkpt>
      <trkpt lat="26.125952" lon="-80.10363">
        <ele>2.055618</ele>
        <time>2025-04-13T08:21:04.000Z</time>
      </trkpt>
      <trkpt lat="26.125948" lon="-80.103636">
        <ele>2.055484</ele>
        <time>2025-04-13T08:21:04.000Z</time>
      </trkpt>
      <trkpt lat="26.125945" lon="-80.103635">
        <ele>2.055492</ele>
        <time>2025-04-13T08:21:04.000Z</time>
      </trkpt>
      <trkpt lat="26.125436" lon="-80.103679">
        <ele>1.990951</ele>
        <time>2025-04-13T08:21:10.000Z</time>
      </trkpt>
      <trkpt lat="26.124941" lon="-80.10373">
        <ele>1.804045</ele>
        <time>2025-04-13T08:21:16.000Z</time>
      </trkpt>
      <trkpt lat="26.124939" lon="-80.103721">
        <ele>1.804043</ele>
        <time>2025-04-13T08:21:16.000Z</time>
      </trkpt>
      <trkpt lat="26.124932" lon="-80.103733">
        <ele>1.804038</ele>
        <time>2025-04-13T08:21:16.000Z</time>
      </trkpt>
      <trkpt lat="26.124372" lon="-80.103837">
        <ele>1.536882</ele>
        <time>2025-04-13T08:21:22.000Z</time>
      </trkpt>
      <trkpt lat="26.12382" lon="-80.103937">
        <ele>1.270279</ele>
        <time>2025-04-13T08:21:28.000Z</time>
      </trkpt>
      <trkpt lat="26.123835" lon="-80.103938">
        <ele>1.270281</ele>
        <time>2025-04-13T08:21:28.000Z</time>
      </trkpt>
      <trkpt lat="26.123207" lon="-80.104026">
        <ele>1.083441</ele>
        <time>2025-04-13T08:21:35.000Z</time>
      </trkpt>
      <trkpt lat="26.122571" lon="-80.104127">
        <ele>1.014905</ele>
        <time>2025-04-13T08:21:42.000Z</time>
      </trkpt>
      <trkpt lat="26.122577" lon="-80.104118">
        <ele>1.014892</ele>
        <time>2025-04-13T08:21:42.000Z</time>
      </trkpt>
      <trkpt lat="26.122015" lon="-80.104192">
        <ele>0.953759</ele>
        <time>2025-04-13T08:21:48.000Z</time>
      </trkpt>
      <trkpt lat="26.121441" lon="-80.104255">
        <ele>1.031086</ele>
        <time>2025-04-13T08:21:54.000Z</time>
      </trkpt>
      <trkpt lat="26.121439" lon="-80.104271">
        <ele>1.031096</ele>
        <time>2025-04-13T08:21:54.000Z</time>
      </trkpt>
      <trkpt lat="26.120953" lon="-80.104334">
        <ele>1.228018</ele>
        <time>2025-04-13T08:21:59.000Z</time>
      </trkpt>
      <trkpt lat="26.120445" lon="-80.104413">
        <ele>1.425372</ele>
        <time>2025-04-13T08:22:05.000Z</time>
      </trkpt>
      <trkpt lat="26.120453" lon="-80.10442">
        <ele>1.42577</ele>
        <time>2025-04-13T08:22:05.000Z</time>
      </trkpt>
      <trkpt lat="26.120448" lon="-80.104411">
        <ele>1.426288</ele>
        <time>2025-04-13T08:22:05.000Z</time>
      </trkpt>
      <trkpt lat="26.120105" lon="-80.104465">
        <ele>1.564937</ele>
        <time>2025-04-13T08:22:09.000Z</time>
      </trkpt>
      <trkpt lat="26.120022" lon="-80.104483">
        <ele>1.600545</ele>
        <time>2025-04-13T08:22:10.000Z</time>
      </trkpt>
      <trkpt lat="26.120003" lon="-80.104486">
        <ele>1.601334</ele>
        <time>2025-04-13T08:22:10.000Z</time>
      </trkpt>
      <trkpt lat="26.120011" lon="-80.104487">
        <ele>1.601324</ele>
        <time>2025-04-13T08:22:10.000Z</time>
      </trkpt>
      <trkpt lat="26.119283" lon="-80.104559">
        <ele>1.6297538733</ele>
        <time>2025-04-13T08:22:18.000Z</time>
      </trkpt>
      <trkpt lat="26.119282" lon="-80.10468">
        <ele>1.63398016752</ele>
        <time>2025-04-13T08:22:19.000Z</time>
      </trkpt>
      <trkpt lat="26.119287" lon="-80.104986">
        <ele>1.64466946793</ele>
        <time>2025-04-13T08:22:22.000Z</time>
      </trkpt>
      <trkpt lat="26.119284" lon="-80.105292">
        <ele>1.65535763575</ele>
        <time>2025-04-13T08:22:25.000Z</time>
      </trkpt>
    </trkseg>
  </trk>
</gpx>

<!--
Performance optimized by W3 Total Cache. Learn more: https://www.boldgrid.com/w3-total-cache/?utm_source=w3tc&utm_medium=footer_comment&utm_campaign=free_plugin

Page Caching using Disk: Enhanced{w3tc_pagecache_reject_reason} 

Served from: www.aquabike.world @ 2026-05-10 15:23:54 by W3 Total Cache
-->